<?xml version="1.0" encoding="UTF-8" standalone="no" ?>
<gpx xmlns="http://www.topografix.com/GPX/1/1" xmlns:xsi="http://www.w3.org/2001/XMLSchema-instance" xsi:schemaLocation="http://www.topografix.com/GPX/1/1 http://www.topografix.com/GPX/1/1/gpx.xsd" version="1.1" creator="VisuGPX - https://www.visugpx.com">
  <metadata>
    <name>entrainement 24km</name>
    <desc><![CDATA[entrainement le long du gave]]></desc>
  </metadata>
  <trk>
    <name><![CDATA[2014-11-15 15:55:38 Chronomètre]]></name>
    <trkseg>
      <trkpt lat="43.19206" lon="-0.26427">
        <ele>300.07</ele>
        <time>2014-11-15T14:55:38Z</time>
      </trkpt>
      <trkpt lat="43.19205" lon="-0.26431">
        <ele>299.59</ele>
        <time>2014-11-15T14:55:55Z</time>
      </trkpt>
      <trkpt lat="43.19204" lon="-0.26432">
        <ele>299.59</ele>
        <time>2014-11-15T14:56:00Z</time>
      </trkpt>
      <trkpt lat="43.19199" lon="-0.26432">
        <ele>299.59</ele>
        <time>2014-11-15T14:56:04Z</time>
      </trkpt>
      <trkpt lat="43.19185" lon="-0.2643">
        <ele>299.11</ele>
        <time>2014-11-15T14:56:14Z</time>
      </trkpt>
      <trkpt lat="43.19164" lon="-0.26433">
        <ele>298.63</ele>
        <time>2014-11-15T14:56:32Z</time>
      </trkpt>
      <trkpt lat="43.19148" lon="-0.2641">
        <ele>299.11</ele>
        <time>2014-11-15T14:56:52Z</time>
      </trkpt>
      <trkpt lat="43.19136" lon="-0.26402">
        <ele>298.63</ele>
        <time>2014-11-15T14:57:03Z</time>
      </trkpt>
      <trkpt lat="43.19126" lon="-0.26394">
        <ele>296.7</ele>
        <time>2014-11-15T14:57:16Z</time>
      </trkpt>
      <trkpt lat="43.19126" lon="-0.26393">
        <ele>296.7</ele>
        <time>2014-11-15T14:57:24Z</time>
      </trkpt>
      <trkpt lat="43.19125" lon="-0.26393">
        <ele>298.63</ele>
        <time>2014-11-15T14:57:26Z</time>
      </trkpt>
      <trkpt lat="43.19102" lon="-0.26383">
        <ele>298.63</ele>
        <time>2014-11-15T14:57:42Z</time>
      </trkpt>
      <trkpt lat="43.19078" lon="-0.2637">
        <ele>298.15</ele>
        <time>2014-11-15T14:57:59Z</time>
      </trkpt>
      <trkpt lat="43.19062" lon="-0.26359">
        <ele>299.11</ele>
        <time>2014-11-15T14:58:12Z</time>
      </trkpt>
      <trkpt lat="43.19059" lon="-0.26357">
        <ele>295.74</ele>
        <time>2014-11-15T14:58:14Z</time>
      </trkpt>
      <trkpt lat="43.19048" lon="-0.26353">
        <ele>297.18</ele>
        <time>2014-11-15T14:58:22Z</time>
      </trkpt>
      <trkpt lat="43.19025" lon="-0.26337">
        <ele>296.7</ele>
        <time>2014-11-15T14:58:39Z</time>
      </trkpt>
      <trkpt lat="43.18994" lon="-0.26316">
        <ele>296.22</ele>
        <time>2014-11-15T14:58:49Z</time>
      </trkpt>
      <trkpt lat="43.18955" lon="-0.26288">
        <ele>296.22</ele>
        <time>2014-11-15T14:59:02Z</time>
      </trkpt>
      <trkpt lat="43.18922" lon="-0.26287">
        <ele>295.74</ele>
        <time>2014-11-15T14:59:12Z</time>
      </trkpt>
      <trkpt lat="43.18919" lon="-0.26288">
        <ele>295.74</ele>
        <time>2014-11-15T14:59:13Z</time>
      </trkpt>
      <trkpt lat="43.18887" lon="-0.26245">
        <ele>295.26</ele>
        <time>2014-11-15T14:59:26Z</time>
      </trkpt>
      <trkpt lat="43.18856" lon="-0.26202">
        <ele>295.26</ele>
        <time>2014-11-15T14:59:39Z</time>
      </trkpt>
      <trkpt lat="43.1882" lon="-0.26146">
        <ele>294.78</ele>
        <time>2014-11-15T14:59:55Z</time>
      </trkpt>
      <trkpt lat="43.18793" lon="-0.26103">
        <ele>294.78</ele>
        <time>2014-11-15T15:00:07Z</time>
      </trkpt>
      <trkpt lat="43.18762" lon="-0.26062">
        <ele>294.3</ele>
        <time>2014-11-15T15:00:20Z</time>
      </trkpt>
      <trkpt lat="43.18728" lon="-0.26048">
        <ele>293.82</ele>
        <time>2014-11-15T15:00:31Z</time>
      </trkpt>
      <trkpt lat="43.18696" lon="-0.26019">
        <ele>294.3</ele>
        <time>2014-11-15T15:00:43Z</time>
      </trkpt>
      <trkpt lat="43.18665" lon="-0.25988">
        <ele>294.3</ele>
        <time>2014-11-15T15:00:55Z</time>
      </trkpt>
      <trkpt lat="43.18645" lon="-0.25963">
        <ele>294.78</ele>
        <time>2014-11-15T15:01:04Z</time>
      </trkpt>
      <trkpt lat="43.18653" lon="-0.2594">
        <ele>294.78</ele>
        <time>2014-11-15T15:01:10Z</time>
      </trkpt>
      <trkpt lat="43.18681" lon="-0.25897">
        <ele>294.3</ele>
        <time>2014-11-15T15:01:24Z</time>
      </trkpt>
      <trkpt lat="43.18704" lon="-0.25861">
        <ele>294.3</ele>
        <time>2014-11-15T15:01:36Z</time>
      </trkpt>
      <trkpt lat="43.18715" lon="-0.25847">
        <ele>292.86</ele>
        <time>2014-11-15T15:01:41Z</time>
      </trkpt>
      <trkpt lat="43.18727" lon="-0.25845">
        <ele>292.86</ele>
        <time>2014-11-15T15:01:45Z</time>
      </trkpt>
      <trkpt lat="43.18761" lon="-0.2586">
        <ele>291.9</ele>
        <time>2014-11-15T15:01:57Z</time>
      </trkpt>
      <trkpt lat="43.18792" lon="-0.25867">
        <ele>291.42</ele>
        <time>2014-11-15T15:02:09Z</time>
      </trkpt>
      <trkpt lat="43.18811" lon="-0.25837">
        <ele>290.94</ele>
        <time>2014-11-15T15:02:21Z</time>
      </trkpt>
      <trkpt lat="43.18821" lon="-0.25786">
        <ele>290.46</ele>
        <time>2014-11-15T15:02:36Z</time>
      </trkpt>
      <trkpt lat="43.18825" lon="-0.25769">
        <ele>289.97</ele>
        <time>2014-11-15T15:02:41Z</time>
      </trkpt>
      <trkpt lat="43.18831" lon="-0.25745">
        <ele>289.49</ele>
        <time>2014-11-15T15:02:49Z</time>
      </trkpt>
      <trkpt lat="43.1883" lon="-0.25741">
        <ele>288.53</ele>
        <time>2014-11-15T15:03:02Z</time>
      </trkpt>
      <trkpt lat="43.18831" lon="-0.25741">
        <ele>289.97</ele>
        <time>2014-11-15T15:03:17Z</time>
      </trkpt>
      <trkpt lat="43.18829" lon="-0.25741">
        <ele>289.49</ele>
        <time>2014-11-15T15:03:32Z</time>
      </trkpt>
      <trkpt lat="43.18831" lon="-0.25739">
        <ele>289.01</ele>
        <time>2014-11-15T15:03:46Z</time>
      </trkpt>
      <trkpt lat="43.18834" lon="-0.25735">
        <ele>288.53</ele>
        <time>2014-11-15T15:04:15Z</time>
      </trkpt>
      <trkpt lat="43.18845" lon="-0.2571">
        <ele>287.09</ele>
        <time>2014-11-15T15:04:34Z</time>
      </trkpt>
      <trkpt lat="43.18858" lon="-0.25673">
        <ele>286.13</ele>
        <time>2014-11-15T15:04:46Z</time>
      </trkpt>
      <trkpt lat="43.18874" lon="-0.25621">
        <ele>285.65</ele>
        <time>2014-11-15T15:04:59Z</time>
      </trkpt>
      <trkpt lat="43.1889" lon="-0.25569">
        <ele>284.69</ele>
        <time>2014-11-15T15:05:12Z</time>
      </trkpt>
      <trkpt lat="43.18892" lon="-0.25562">
        <ele>284.69</ele>
        <time>2014-11-15T15:05:14Z</time>
      </trkpt>
      <trkpt lat="43.18916" lon="-0.2555">
        <ele>284.21</ele>
        <time>2014-11-15T15:05:23Z</time>
      </trkpt>
      <trkpt lat="43.18955" lon="-0.25553">
        <ele>283.25</ele>
        <time>2014-11-15T15:05:35Z</time>
      </trkpt>
      <trkpt lat="43.18993" lon="-0.25557">
        <ele>282.77</ele>
        <time>2014-11-15T15:05:47Z</time>
      </trkpt>
      <trkpt lat="43.19013" lon="-0.25571">
        <ele>282.28</ele>
        <time>2014-11-15T15:05:55Z</time>
      </trkpt>
      <trkpt lat="43.19051" lon="-0.25602">
        <ele>282.28</ele>
        <time>2014-11-15T15:06:08Z</time>
      </trkpt>
      <trkpt lat="43.19081" lon="-0.25628">
        <ele>281.32</ele>
        <time>2014-11-15T15:06:21Z</time>
      </trkpt>
      <trkpt lat="43.19118" lon="-0.25662">
        <ele>279.88</ele>
        <time>2014-11-15T15:06:37Z</time>
      </trkpt>
      <trkpt lat="43.19147" lon="-0.25698">
        <ele>281.32</ele>
        <time>2014-11-15T15:06:49Z</time>
      </trkpt>
      <trkpt lat="43.19155" lon="-0.25706">
        <ele>279.88</ele>
        <time>2014-11-15T15:06:52Z</time>
      </trkpt>
      <trkpt lat="43.19193" lon="-0.25756">
        <ele>278.44</ele>
        <time>2014-11-15T15:07:09Z</time>
      </trkpt>
      <trkpt lat="43.19195" lon="-0.25759">
        <ele>278.44</ele>
        <time>2014-11-15T15:07:10Z</time>
      </trkpt>
      <trkpt lat="43.19237" lon="-0.25802">
        <ele>279.4</ele>
        <time>2014-11-15T15:07:26Z</time>
      </trkpt>
      <trkpt lat="43.19258" lon="-0.2582">
        <ele>277.48</ele>
        <time>2014-11-15T15:07:33Z</time>
      </trkpt>
      <trkpt lat="43.19264" lon="-0.25823">
        <ele>278.92</ele>
        <time>2014-11-15T15:07:35Z</time>
      </trkpt>
      <trkpt lat="43.19315" lon="-0.2586">
        <ele>278.44</ele>
        <time>2014-11-15T15:07:51Z</time>
      </trkpt>
      <trkpt lat="43.1936" lon="-0.25911">
        <ele>276.52</ele>
        <time>2014-11-15T15:08:09Z</time>
      </trkpt>
      <trkpt lat="43.19382" lon="-0.25923">
        <ele>275.07</ele>
        <time>2014-11-15T15:08:17Z</time>
      </trkpt>
      <trkpt lat="43.1939" lon="-0.25927">
        <ele>276.52</ele>
        <time>2014-11-15T15:08:20Z</time>
      </trkpt>
      <trkpt lat="43.19397" lon="-0.25929">
        <ele>274.11</ele>
        <time>2014-11-15T15:08:23Z</time>
      </trkpt>
      <trkpt lat="43.19436" lon="-0.25961">
        <ele>275.56</ele>
        <time>2014-11-15T15:08:38Z</time>
      </trkpt>
      <trkpt lat="43.19444" lon="-0.25974">
        <ele>273.63</ele>
        <time>2014-11-15T15:08:42Z</time>
      </trkpt>
      <trkpt lat="43.1945" lon="-0.25983">
        <ele>275.07</ele>
        <time>2014-11-15T15:08:45Z</time>
      </trkpt>
      <trkpt lat="43.19463" lon="-0.26005">
        <ele>273.15</ele>
        <time>2014-11-15T15:08:52Z</time>
      </trkpt>
      <trkpt lat="43.1948" lon="-0.2603">
        <ele>271.71</ele>
        <time>2014-11-15T15:09:01Z</time>
      </trkpt>
      <trkpt lat="43.19518" lon="-0.26066">
        <ele>271.23</ele>
        <time>2014-11-15T15:09:16Z</time>
      </trkpt>
      <trkpt lat="43.1952" lon="-0.26069">
        <ele>271.23</ele>
        <time>2014-11-15T15:09:17Z</time>
      </trkpt>
      <trkpt lat="43.1953" lon="-0.26082">
        <ele>269.79</ele>
        <time>2014-11-15T15:09:22Z</time>
      </trkpt>
      <trkpt lat="43.19533" lon="-0.26088">
        <ele>271.23</ele>
        <time>2014-11-15T15:09:24Z</time>
      </trkpt>
      <trkpt lat="43.19559" lon="-0.26129">
        <ele>269.79</ele>
        <time>2014-11-15T15:09:36Z</time>
      </trkpt>
      <trkpt lat="43.19582" lon="-0.2618">
        <ele>270.27</ele>
        <time>2014-11-15T15:09:52Z</time>
      </trkpt>
      <trkpt lat="43.19588" lon="-0.26191">
        <ele>268.35</ele>
        <time>2014-11-15T15:09:55Z</time>
      </trkpt>
      <trkpt lat="43.19605" lon="-0.2622">
        <ele>267.86</ele>
        <time>2014-11-15T15:10:04Z</time>
      </trkpt>
      <trkpt lat="43.19634" lon="-0.26269">
        <ele>267.38</ele>
        <time>2014-11-15T15:10:19Z</time>
      </trkpt>
      <trkpt lat="43.1964" lon="-0.26283">
        <ele>268.83</ele>
        <time>2014-11-15T15:10:23Z</time>
      </trkpt>
      <trkpt lat="43.19649" lon="-0.2632">
        <ele>267.38</ele>
        <time>2014-11-15T15:10:36Z</time>
      </trkpt>
      <trkpt lat="43.19665" lon="-0.26371">
        <ele>269.79</ele>
        <time>2014-11-15T15:10:52Z</time>
      </trkpt>
      <trkpt lat="43.197" lon="-0.2641">
        <ele>269.79</ele>
        <time>2014-11-15T15:11:07Z</time>
      </trkpt>
      <trkpt lat="43.19745" lon="-0.26434">
        <ele>269.31</ele>
        <time>2014-11-15T15:11:25Z</time>
      </trkpt>
      <trkpt lat="43.19751" lon="-0.26437">
        <ele>267.86</ele>
        <time>2014-11-15T15:11:27Z</time>
      </trkpt>
      <trkpt lat="43.19796" lon="-0.26448">
        <ele>267.38</ele>
        <time>2014-11-15T15:11:45Z</time>
      </trkpt>
      <trkpt lat="43.19804" lon="-0.26448">
        <ele>268.83</ele>
        <time>2014-11-15T15:11:48Z</time>
      </trkpt>
      <trkpt lat="43.1986" lon="-0.26451">
        <ele>269.79</ele>
        <time>2014-11-15T15:12:10Z</time>
      </trkpt>
      <trkpt lat="43.1991" lon="-0.26434">
        <ele>266.9</ele>
        <time>2014-11-15T15:12:29Z</time>
      </trkpt>
      <trkpt lat="43.19962" lon="-0.26437">
        <ele>265.94</ele>
        <time>2014-11-15T15:12:45Z</time>
      </trkpt>
      <trkpt lat="43.20025" lon="-0.26447">
        <ele>264.5</ele>
        <time>2014-11-15T15:13:05Z</time>
      </trkpt>
      <trkpt lat="43.20035" lon="-0.26448">
        <ele>266.9</ele>
        <time>2014-11-15T15:13:08Z</time>
      </trkpt>
      <trkpt lat="43.20046" lon="-0.2645">
        <ele>264.98</ele>
        <time>2014-11-15T15:13:11Z</time>
      </trkpt>
      <trkpt lat="43.20096" lon="-0.26459">
        <ele>265.94</ele>
        <time>2014-11-15T15:13:27Z</time>
      </trkpt>
      <trkpt lat="43.20148" lon="-0.26463">
        <ele>265.94</ele>
        <time>2014-11-15T15:13:44Z</time>
      </trkpt>
      <trkpt lat="43.20153" lon="-0.26447">
        <ele>267.38</ele>
        <time>2014-11-15T15:13:50Z</time>
      </trkpt>
      <trkpt lat="43.20156" lon="-0.26421">
        <ele>265.94</ele>
        <time>2014-11-15T15:13:57Z</time>
      </trkpt>
      <trkpt lat="43.20159" lon="-0.2639">
        <ele>266.9</ele>
        <time>2014-11-15T15:14:05Z</time>
      </trkpt>
      <trkpt lat="43.20161" lon="-0.26372">
        <ele>264.98</ele>
        <time>2014-11-15T15:14:10Z</time>
      </trkpt>
      <trkpt lat="43.20163" lon="-0.26362">
        <ele>265.46</ele>
        <time>2014-11-15T15:14:13Z</time>
      </trkpt>
      <trkpt lat="43.20157" lon="-0.26351">
        <ele>265.46</ele>
        <time>2014-11-15T15:14:18Z</time>
      </trkpt>
      <trkpt lat="43.20149" lon="-0.26347">
        <ele>264.02</ele>
        <time>2014-11-15T15:14:21Z</time>
      </trkpt>
      <trkpt lat="43.20102" lon="-0.26334">
        <ele>262.58</ele>
        <time>2014-11-15T15:14:37Z</time>
      </trkpt>
      <trkpt lat="43.20041" lon="-0.26321">
        <ele>264.02</ele>
        <time>2014-11-15T15:14:58Z</time>
      </trkpt>
      <trkpt lat="43.19986" lon="-0.26313">
        <ele>261.14</ele>
        <time>2014-11-15T15:15:17Z</time>
      </trkpt>
      <trkpt lat="43.19928" lon="-0.26312">
        <ele>263.54</ele>
        <time>2014-11-15T15:15:36Z</time>
      </trkpt>
      <trkpt lat="43.19925" lon="-0.26312">
        <ele>263.54</ele>
        <time>2014-11-15T15:15:37Z</time>
      </trkpt>
      <trkpt lat="43.19917" lon="-0.26313">
        <ele>261.62</ele>
        <time>2014-11-15T15:15:40Z</time>
      </trkpt>
      <trkpt lat="43.19867" lon="-0.26325">
        <ele>260.65</ele>
        <time>2014-11-15T15:15:57Z</time>
      </trkpt>
      <trkpt lat="43.19809" lon="-0.26344">
        <ele>260.65</ele>
        <time>2014-11-15T15:16:17Z</time>
      </trkpt>
      <trkpt lat="43.19773" lon="-0.26342">
        <ele>260.17</ele>
        <time>2014-11-15T15:16:29Z</time>
      </trkpt>
      <trkpt lat="43.19734" lon="-0.26322">
        <ele>261.14</ele>
        <time>2014-11-15T15:16:45Z</time>
      </trkpt>
      <trkpt lat="43.19708" lon="-0.2627">
        <ele>261.62</ele>
        <time>2014-11-15T15:17:02Z</time>
      </trkpt>
      <trkpt lat="43.19704" lon="-0.26259">
        <ele>260.17</ele>
        <time>2014-11-15T15:17:05Z</time>
      </trkpt>
      <trkpt lat="43.19678" lon="-0.26195">
        <ele>260.65</ele>
        <time>2014-11-15T15:17:25Z</time>
      </trkpt>
      <trkpt lat="43.19677" lon="-0.26192">
        <ele>260.65</ele>
        <time>2014-11-15T15:17:26Z</time>
      </trkpt>
      <trkpt lat="43.19672" lon="-0.26181">
        <ele>258.73</ele>
        <time>2014-11-15T15:17:30Z</time>
      </trkpt>
      <trkpt lat="43.19645" lon="-0.26117">
        <ele>258.25</ele>
        <time>2014-11-15T15:17:49Z</time>
      </trkpt>
      <trkpt lat="43.19625" lon="-0.26085">
        <ele>258.73</ele>
        <time>2014-11-15T15:18:00Z</time>
      </trkpt>
      <trkpt lat="43.19593" lon="-0.26032">
        <ele>259.69</ele>
        <time>2014-11-15T15:18:18Z</time>
      </trkpt>
      <trkpt lat="43.19565" lon="-0.25985">
        <ele>260.17</ele>
        <time>2014-11-15T15:18:34Z</time>
      </trkpt>
      <trkpt lat="43.19548" lon="-0.25953">
        <ele>260.17</ele>
        <time>2014-11-15T15:18:45Z</time>
      </trkpt>
      <trkpt lat="43.19554" lon="-0.25895">
        <ele>258.73</ele>
        <time>2014-11-15T15:19:02Z</time>
      </trkpt>
      <trkpt lat="43.19572" lon="-0.25847">
        <ele>259.69</ele>
        <time>2014-11-15T15:19:17Z</time>
      </trkpt>
      <trkpt lat="43.19576" lon="-0.25844">
        <ele>258.73</ele>
        <time>2014-11-15T15:19:19Z</time>
      </trkpt>
      <trkpt lat="43.19625" lon="-0.25858">
        <ele>257.77</ele>
        <time>2014-11-15T15:19:34Z</time>
      </trkpt>
      <trkpt lat="43.19679" lon="-0.2588">
        <ele>257.29</ele>
        <time>2014-11-15T15:19:52Z</time>
      </trkpt>
      <trkpt lat="43.19724" lon="-0.25896">
        <ele>256.33</ele>
        <time>2014-11-15T15:20:08Z</time>
      </trkpt>
      <trkpt lat="43.19772" lon="-0.25923">
        <ele>255.37</ele>
        <time>2014-11-15T15:20:25Z</time>
      </trkpt>
      <trkpt lat="43.1981" lon="-0.25959">
        <ele>256.81</ele>
        <time>2014-11-15T15:20:41Z</time>
      </trkpt>
      <trkpt lat="43.19825" lon="-0.25974">
        <ele>256.81</ele>
        <time>2014-11-15T15:20:48Z</time>
      </trkpt>
      <trkpt lat="43.19858" lon="-0.25987">
        <ele>256.81</ele>
        <time>2014-11-15T15:21:01Z</time>
      </trkpt>
      <trkpt lat="43.19863" lon="-0.25987">
        <ele>255.85</ele>
        <time>2014-11-15T15:21:03Z</time>
      </trkpt>
      <trkpt lat="43.19878" lon="-0.25979">
        <ele>256.81</ele>
        <time>2014-11-15T15:21:08Z</time>
      </trkpt>
      <trkpt lat="43.19891" lon="-0.25951">
        <ele>256.81</ele>
        <time>2014-11-15T15:21:19Z</time>
      </trkpt>
      <trkpt lat="43.19903" lon="-0.25911">
        <ele>255.85</ele>
        <time>2014-11-15T15:21:34Z</time>
      </trkpt>
      <trkpt lat="43.19924" lon="-0.25839">
        <ele>255.85</ele>
        <time>2014-11-15T15:21:52Z</time>
      </trkpt>
      <trkpt lat="43.19929" lon="-0.25801">
        <ele>254.41</ele>
        <time>2014-11-15T15:21:58Z</time>
      </trkpt>
      <trkpt lat="43.19949" lon="-0.2576">
        <ele>253.44</ele>
        <time>2014-11-15T15:22:14Z</time>
      </trkpt>
      <trkpt lat="43.19976" lon="-0.25752">
        <ele>254.89</ele>
        <time>2014-11-15T15:22:28Z</time>
      </trkpt>
      <trkpt lat="43.20014" lon="-0.25764">
        <ele>253.44</ele>
        <time>2014-11-15T15:22:43Z</time>
      </trkpt>
      <trkpt lat="43.20056" lon="-0.25801">
        <ele>252.96</ele>
        <time>2014-11-15T15:23:01Z</time>
      </trkpt>
      <trkpt lat="43.20095" lon="-0.25852">
        <ele>251.52</ele>
        <time>2014-11-15T15:23:18Z</time>
      </trkpt>
      <trkpt lat="43.20099" lon="-0.25857">
        <ele>252.96</ele>
        <time>2014-11-15T15:23:20Z</time>
      </trkpt>
      <trkpt lat="43.20133" lon="-0.25888">
        <ele>254.41</ele>
        <time>2014-11-15T15:23:36Z</time>
      </trkpt>
      <trkpt lat="43.2017" lon="-0.25896">
        <ele>255.85</ele>
        <time>2014-11-15T15:23:51Z</time>
      </trkpt>
      <trkpt lat="43.20218" lon="-0.25914">
        <ele>253.44</ele>
        <time>2014-11-15T15:24:10Z</time>
      </trkpt>
      <trkpt lat="43.20258" lon="-0.25939">
        <ele>252</ele>
        <time>2014-11-15T15:24:29Z</time>
      </trkpt>
      <trkpt lat="43.20303" lon="-0.25957">
        <ele>249.6</ele>
        <time>2014-11-15T15:24:48Z</time>
      </trkpt>
      <trkpt lat="43.20351" lon="-0.25959">
        <ele>248.16</ele>
        <time>2014-11-15T15:25:09Z</time>
      </trkpt>
      <trkpt lat="43.20359" lon="-0.25961">
        <ele>249.6</ele>
        <time>2014-11-15T15:25:12Z</time>
      </trkpt>
      <trkpt lat="43.20369" lon="-0.25967">
        <ele>248.16</ele>
        <time>2014-11-15T15:25:16Z</time>
      </trkpt>
      <trkpt lat="43.20403" lon="-0.25992">
        <ele>248.64</ele>
        <time>2014-11-15T15:25:35Z</time>
      </trkpt>
      <trkpt lat="43.20419" lon="-0.26014">
        <ele>248.64</ele>
        <time>2014-11-15T15:25:44Z</time>
      </trkpt>
      <trkpt lat="43.20431" lon="-0.26036">
        <ele>247.2</ele>
        <time>2014-11-15T15:25:51Z</time>
      </trkpt>
      <trkpt lat="43.20451" lon="-0.26096">
        <ele>246.23</ele>
        <time>2014-11-15T15:26:09Z</time>
      </trkpt>
      <trkpt lat="43.20463" lon="-0.26159">
        <ele>247.2</ele>
        <time>2014-11-15T15:26:29Z</time>
      </trkpt>
      <trkpt lat="43.20465" lon="-0.26181">
        <ele>247.68</ele>
        <time>2014-11-15T15:26:37Z</time>
      </trkpt>
      <trkpt lat="43.20451" lon="-0.26216">
        <ele>245.75</ele>
        <time>2014-11-15T15:26:49Z</time>
      </trkpt>
      <trkpt lat="43.20443" lon="-0.26242">
        <ele>245.75</ele>
        <time>2014-11-15T15:26:57Z</time>
      </trkpt>
      <trkpt lat="43.20453" lon="-0.26293">
        <ele>243.83</ele>
        <time>2014-11-15T15:27:12Z</time>
      </trkpt>
      <trkpt lat="43.20466" lon="-0.26345">
        <ele>244.31</ele>
        <time>2014-11-15T15:27:27Z</time>
      </trkpt>
      <trkpt lat="43.20475" lon="-0.26373">
        <ele>243.35</ele>
        <time>2014-11-15T15:27:36Z</time>
      </trkpt>
      <trkpt lat="43.20495" lon="-0.26429">
        <ele>242.87</ele>
        <time>2014-11-15T15:27:55Z</time>
      </trkpt>
      <trkpt lat="43.20511" lon="-0.26474">
        <ele>244.31</ele>
        <time>2014-11-15T15:28:11Z</time>
      </trkpt>
      <trkpt lat="43.20526" lon="-0.26532">
        <ele>242.87</ele>
        <time>2014-11-15T15:28:29Z</time>
      </trkpt>
      <trkpt lat="43.20532" lon="-0.2657">
        <ele>242.39</ele>
        <time>2014-11-15T15:28:41Z</time>
      </trkpt>
      <trkpt lat="43.2054" lon="-0.26626">
        <ele>241.91</ele>
        <time>2014-11-15T15:28:58Z</time>
      </trkpt>
      <trkpt lat="43.20546" lon="-0.26671">
        <ele>242.39</ele>
        <time>2014-11-15T15:29:12Z</time>
      </trkpt>
      <trkpt lat="43.20563" lon="-0.26699">
        <ele>240.95</ele>
        <time>2014-11-15T15:29:26Z</time>
      </trkpt>
      <trkpt lat="43.20595" lon="-0.26735">
        <ele>239.99</ele>
        <time>2014-11-15T15:29:45Z</time>
      </trkpt>
      <trkpt lat="43.20603" lon="-0.26745">
        <ele>240.95</ele>
        <time>2014-11-15T15:29:50Z</time>
      </trkpt>
      <trkpt lat="43.20628" lon="-0.26772">
        <ele>239.99</ele>
        <time>2014-11-15T15:30:03Z</time>
      </trkpt>
      <trkpt lat="43.20665" lon="-0.26809">
        <ele>239.51</ele>
        <time>2014-11-15T15:30:20Z</time>
      </trkpt>
      <trkpt lat="43.20677" lon="-0.2681">
        <ele>239.99</ele>
        <time>2014-11-15T15:30:26Z</time>
      </trkpt>
      <trkpt lat="43.20685" lon="-0.26802">
        <ele>239.02</ele>
        <time>2014-11-15T15:30:32Z</time>
      </trkpt>
      <trkpt lat="43.20694" lon="-0.26789">
        <ele>238.54</ele>
        <time>2014-11-15T15:30:41Z</time>
      </trkpt>
      <trkpt lat="43.20716" lon="-0.26756">
        <ele>237.1</ele>
        <time>2014-11-15T15:30:59Z</time>
      </trkpt>
      <trkpt lat="43.20746" lon="-0.2672">
        <ele>236.62</ele>
        <time>2014-11-15T15:31:15Z</time>
      </trkpt>
      <trkpt lat="43.20784" lon="-0.26672">
        <ele>237.1</ele>
        <time>2014-11-15T15:31:35Z</time>
      </trkpt>
      <trkpt lat="43.20798" lon="-0.26663">
        <ele>235.66</ele>
        <time>2014-11-15T15:31:43Z</time>
      </trkpt>
      <trkpt lat="43.20846" lon="-0.26668">
        <ele>235.66</ele>
        <time>2014-11-15T15:32:01Z</time>
      </trkpt>
      <trkpt lat="43.20871" lon="-0.2668">
        <ele>234.22</ele>
        <time>2014-11-15T15:32:14Z</time>
      </trkpt>
      <trkpt lat="43.20881" lon="-0.26686">
        <ele>235.18</ele>
        <time>2014-11-15T15:32:19Z</time>
      </trkpt>
      <trkpt lat="43.20914" lon="-0.26708">
        <ele>235.18</ele>
        <time>2014-11-15T15:32:32Z</time>
      </trkpt>
      <trkpt lat="43.20923" lon="-0.26714">
        <ele>233.74</ele>
        <time>2014-11-15T15:32:36Z</time>
      </trkpt>
      <trkpt lat="43.20947" lon="-0.26731">
        <ele>235.18</ele>
        <time>2014-11-15T15:32:46Z</time>
      </trkpt>
      <trkpt lat="43.20955" lon="-0.26741">
        <ele>233.74</ele>
        <time>2014-11-15T15:32:51Z</time>
      </trkpt>
      <trkpt lat="43.21" lon="-0.26781">
        <ele>233.26</ele>
        <time>2014-11-15T15:33:07Z</time>
      </trkpt>
      <trkpt lat="43.21026" lon="-0.26792">
        <ele>231.81</ele>
        <time>2014-11-15T15:33:22Z</time>
      </trkpt>
      <trkpt lat="43.21035" lon="-0.26802">
        <ele>232.78</ele>
        <time>2014-11-15T15:33:28Z</time>
      </trkpt>
      <trkpt lat="43.21058" lon="-0.26817">
        <ele>231.33</ele>
        <time>2014-11-15T15:33:41Z</time>
      </trkpt>
      <trkpt lat="43.21099" lon="-0.26847">
        <ele>230.37</ele>
        <time>2014-11-15T15:33:56Z</time>
      </trkpt>
      <trkpt lat="43.21121" lon="-0.26867">
        <ele>229.89</ele>
        <time>2014-11-15T15:34:09Z</time>
      </trkpt>
      <trkpt lat="43.21122" lon="-0.26867">
        <ele>229.89</ele>
        <time>2014-11-15T15:34:10Z</time>
      </trkpt>
      <trkpt lat="43.21149" lon="-0.26884">
        <ele>229.89</ele>
        <time>2014-11-15T15:34:24Z</time>
      </trkpt>
      <trkpt lat="43.21188" lon="-0.2692">
        <ele>230.37</ele>
        <time>2014-11-15T15:34:42Z</time>
      </trkpt>
      <trkpt lat="43.21191" lon="-0.26922">
        <ele>228.93</ele>
        <time>2014-11-15T15:34:44Z</time>
      </trkpt>
      <trkpt lat="43.21199" lon="-0.26927">
        <ele>229.89</ele>
        <time>2014-11-15T15:34:49Z</time>
      </trkpt>
      <trkpt lat="43.21231" lon="-0.2695">
        <ele>228.45</ele>
        <time>2014-11-15T15:35:02Z</time>
      </trkpt>
      <trkpt lat="43.21261" lon="-0.2699">
        <ele>227.01</ele>
        <time>2014-11-15T15:35:16Z</time>
      </trkpt>
      <trkpt lat="43.21306" lon="-0.27028">
        <ele>226.05</ele>
        <time>2014-11-15T15:35:34Z</time>
      </trkpt>
      <trkpt lat="43.21315" lon="-0.27035">
        <ele>225.57</ele>
        <time>2014-11-15T15:35:39Z</time>
      </trkpt>
      <trkpt lat="43.21335" lon="-0.27049">
        <ele>224.61</ele>
        <time>2014-11-15T15:35:48Z</time>
      </trkpt>
      <trkpt lat="43.21361" lon="-0.27076">
        <ele>225.09</ele>
        <time>2014-11-15T15:36:00Z</time>
      </trkpt>
      <trkpt lat="43.21401" lon="-0.27113">
        <ele>225.57</ele>
        <time>2014-11-15T15:36:18Z</time>
      </trkpt>
      <trkpt lat="43.21435" lon="-0.27142">
        <ele>224.12</ele>
        <time>2014-11-15T15:36:36Z</time>
      </trkpt>
      <trkpt lat="43.21469" lon="-0.27169">
        <ele>224.61</ele>
        <time>2014-11-15T15:36:54Z</time>
      </trkpt>
      <trkpt lat="43.21476" lon="-0.27184">
        <ele>225.09</ele>
        <time>2014-11-15T15:37:00Z</time>
      </trkpt>
      <trkpt lat="43.21458" lon="-0.27236">
        <ele>223.16</ele>
        <time>2014-11-15T15:37:18Z</time>
      </trkpt>
      <trkpt lat="43.21464" lon="-0.27266">
        <ele>225.09</ele>
        <time>2014-11-15T15:37:28Z</time>
      </trkpt>
      <trkpt lat="43.21472" lon="-0.27276">
        <ele>223.64</ele>
        <time>2014-11-15T15:37:33Z</time>
      </trkpt>
      <trkpt lat="43.21476" lon="-0.27277">
        <ele>224.61</ele>
        <time>2014-11-15T15:37:35Z</time>
      </trkpt>
      <trkpt lat="43.21481" lon="-0.27282">
        <ele>223.16</ele>
        <time>2014-11-15T15:37:38Z</time>
      </trkpt>
      <trkpt lat="43.21486" lon="-0.27288">
        <ele>223.16</ele>
        <time>2014-11-15T15:37:41Z</time>
      </trkpt>
      <trkpt lat="43.21504" lon="-0.27342">
        <ele>222.2</ele>
        <time>2014-11-15T15:37:57Z</time>
      </trkpt>
      <trkpt lat="43.21538" lon="-0.27395">
        <ele>221.72</ele>
        <time>2014-11-15T15:38:13Z</time>
      </trkpt>
      <trkpt lat="43.21563" lon="-0.27432">
        <ele>221.24</ele>
        <time>2014-11-15T15:38:33Z</time>
      </trkpt>
      <trkpt lat="43.21591" lon="-0.27475">
        <ele>220.76</ele>
        <time>2014-11-15T15:38:48Z</time>
      </trkpt>
      <trkpt lat="43.21604" lon="-0.27493">
        <ele>218.84</ele>
        <time>2014-11-15T15:38:57Z</time>
      </trkpt>
      <trkpt lat="43.2162" lon="-0.27504">
        <ele>218.36</ele>
        <time>2014-11-15T15:39:09Z</time>
      </trkpt>
      <trkpt lat="43.21628" lon="-0.27508">
        <ele>219.32</ele>
        <time>2014-11-15T15:39:17Z</time>
      </trkpt>
      <trkpt lat="43.21643" lon="-0.27507">
        <ele>218.36</ele>
        <time>2014-11-15T15:39:24Z</time>
      </trkpt>
      <trkpt lat="43.21676" lon="-0.2751">
        <ele>217.4</ele>
        <time>2014-11-15T15:39:37Z</time>
      </trkpt>
      <trkpt lat="43.21723" lon="-0.27523">
        <ele>216.91</ele>
        <time>2014-11-15T15:39:50Z</time>
      </trkpt>
      <trkpt lat="43.21732" lon="-0.27525">
        <ele>218.84</ele>
        <time>2014-11-15T15:39:53Z</time>
      </trkpt>
      <trkpt lat="43.21741" lon="-0.2753">
        <ele>217.4</ele>
        <time>2014-11-15T15:39:57Z</time>
      </trkpt>
      <trkpt lat="43.21761" lon="-0.27543">
        <ele>216.43</ele>
        <time>2014-11-15T15:40:09Z</time>
      </trkpt>
      <trkpt lat="43.21816" lon="-0.27573">
        <ele>216.43</ele>
        <time>2014-11-15T15:40:31Z</time>
      </trkpt>
      <trkpt lat="43.21858" lon="-0.27599">
        <ele>215.95</ele>
        <time>2014-11-15T15:40:47Z</time>
      </trkpt>
      <trkpt lat="43.2189" lon="-0.27638">
        <ele>215.95</ele>
        <time>2014-11-15T15:41:00Z</time>
      </trkpt>
      <trkpt lat="43.21899" lon="-0.27647">
        <ele>214.51</ele>
        <time>2014-11-15T15:41:04Z</time>
      </trkpt>
      <trkpt lat="43.21938" lon="-0.27681">
        <ele>215.47</ele>
        <time>2014-11-15T15:41:23Z</time>
      </trkpt>
      <trkpt lat="43.21951" lon="-0.27692">
        <ele>214.03</ele>
        <time>2014-11-15T15:41:28Z</time>
      </trkpt>
      <trkpt lat="43.21958" lon="-0.27697">
        <ele>215.47</ele>
        <time>2014-11-15T15:41:32Z</time>
      </trkpt>
      <trkpt lat="43.21974" lon="-0.27712">
        <ele>214.03</ele>
        <time>2014-11-15T15:41:41Z</time>
      </trkpt>
      <trkpt lat="43.21999" lon="-0.27706">
        <ele>213.55</ele>
        <time>2014-11-15T15:41:57Z</time>
      </trkpt>
      <trkpt lat="43.22" lon="-0.27705">
        <ele>213.55</ele>
        <time>2014-11-15T15:41:58Z</time>
      </trkpt>
      <trkpt lat="43.22037" lon="-0.27713">
        <ele>213.55</ele>
        <time>2014-11-15T15:42:16Z</time>
      </trkpt>
      <trkpt lat="43.22044" lon="-0.27717">
        <ele>213.55</ele>
        <time>2014-11-15T15:42:20Z</time>
      </trkpt>
      <trkpt lat="43.22061" lon="-0.27725">
        <ele>212.11</ele>
        <time>2014-11-15T15:42:28Z</time>
      </trkpt>
      <trkpt lat="43.22073" lon="-0.27735">
        <ele>213.55</ele>
        <time>2014-11-15T15:42:33Z</time>
      </trkpt>
      <trkpt lat="43.22091" lon="-0.27767">
        <ele>212.59</ele>
        <time>2014-11-15T15:42:46Z</time>
      </trkpt>
      <trkpt lat="43.22113" lon="-0.27805">
        <ele>212.11</ele>
        <time>2014-11-15T15:43:01Z</time>
      </trkpt>
      <trkpt lat="43.22139" lon="-0.27841">
        <ele>212.11</ele>
        <time>2014-11-15T15:43:16Z</time>
      </trkpt>
      <trkpt lat="43.22143" lon="-0.27848">
        <ele>213.55</ele>
        <time>2014-11-15T15:43:19Z</time>
      </trkpt>
      <trkpt lat="43.22144" lon="-0.2785">
        <ele>213.55</ele>
        <time>2014-11-15T15:43:20Z</time>
      </trkpt>
      <trkpt lat="43.2215" lon="-0.27868">
        <ele>214.03</ele>
        <time>2014-11-15T15:43:28Z</time>
      </trkpt>
      <trkpt lat="43.22169" lon="-0.27864">
        <ele>212.59</ele>
        <time>2014-11-15T15:43:39Z</time>
      </trkpt>
      <trkpt lat="43.22175" lon="-0.27869">
        <ele>210.67</ele>
        <time>2014-11-15T15:43:42Z</time>
      </trkpt>
      <trkpt lat="43.22202" lon="-0.27899">
        <ele>212.59</ele>
        <time>2014-11-15T15:43:54Z</time>
      </trkpt>
      <trkpt lat="43.22243" lon="-0.2793">
        <ele>211.15</ele>
        <time>2014-11-15T15:44:13Z</time>
      </trkpt>
      <trkpt lat="43.22281" lon="-0.27954">
        <ele>211.15</ele>
        <time>2014-11-15T15:44:32Z</time>
      </trkpt>
      <trkpt lat="43.22282" lon="-0.27954">
        <ele>212.59</ele>
        <time>2014-11-15T15:44:33Z</time>
      </trkpt>
      <trkpt lat="43.22311" lon="-0.27954">
        <ele>212.59</ele>
        <time>2014-11-15T15:44:49Z</time>
      </trkpt>
      <trkpt lat="43.22342" lon="-0.27965">
        <ele>213.07</ele>
        <time>2014-11-15T15:45:05Z</time>
      </trkpt>
      <trkpt lat="43.22357" lon="-0.27962">
        <ele>213.07</ele>
        <time>2014-11-15T15:45:10Z</time>
      </trkpt>
      <trkpt lat="43.22362" lon="-0.27957">
        <ele>211.63</ele>
        <time>2014-11-15T15:45:13Z</time>
      </trkpt>
      <trkpt lat="43.22367" lon="-0.27949">
        <ele>213.07</ele>
        <time>2014-11-15T15:45:16Z</time>
      </trkpt>
      <trkpt lat="43.22396" lon="-0.27894">
        <ele>211.63</ele>
        <time>2014-11-15T15:45:37Z</time>
      </trkpt>
      <trkpt lat="43.22415" lon="-0.27857">
        <ele>212.59</ele>
        <time>2014-11-15T15:45:51Z</time>
      </trkpt>
      <trkpt lat="43.2242" lon="-0.27846">
        <ele>211.63</ele>
        <time>2014-11-15T15:45:55Z</time>
      </trkpt>
      <trkpt lat="43.22445" lon="-0.27851">
        <ele>213.07</ele>
        <time>2014-11-15T15:46:11Z</time>
      </trkpt>
      <trkpt lat="43.22467" lon="-0.27865">
        <ele>210.67</ele>
        <time>2014-11-15T15:46:21Z</time>
      </trkpt>
      <trkpt lat="43.22501" lon="-0.27891">
        <ele>210.19</ele>
        <time>2014-11-15T15:46:37Z</time>
      </trkpt>
      <trkpt lat="43.225" lon="-0.27942">
        <ele>211.63</ele>
        <time>2014-11-15T15:46:58Z</time>
      </trkpt>
      <trkpt lat="43.2249" lon="-0.27972">
        <ele>210.19</ele>
        <time>2014-11-15T15:47:09Z</time>
      </trkpt>
      <trkpt lat="43.22475" lon="-0.28016">
        <ele>210.67</ele>
        <time>2014-11-15T15:47:21Z</time>
      </trkpt>
      <trkpt lat="43.22474" lon="-0.28023">
        <ele>210.67</ele>
        <time>2014-11-15T15:47:23Z</time>
      </trkpt>
      <trkpt lat="43.22477" lon="-0.28043">
        <ele>210.19</ele>
        <time>2014-11-15T15:47:29Z</time>
      </trkpt>
      <trkpt lat="43.2249" lon="-0.28058">
        <ele>210.19</ele>
        <time>2014-11-15T15:47:37Z</time>
      </trkpt>
      <trkpt lat="43.22493" lon="-0.28062">
        <ele>211.63</ele>
        <time>2014-11-15T15:47:39Z</time>
      </trkpt>
      <trkpt lat="43.225" lon="-0.2807">
        <ele>210.19</ele>
        <time>2014-11-15T15:47:44Z</time>
      </trkpt>
      <trkpt lat="43.22507" lon="-0.28081">
        <ele>210.19</ele>
        <time>2014-11-15T15:47:50Z</time>
      </trkpt>
      <trkpt lat="43.22535" lon="-0.28109">
        <ele>210.67</ele>
        <time>2014-11-15T15:48:08Z</time>
      </trkpt>
      <trkpt lat="43.22561" lon="-0.28141">
        <ele>210.67</ele>
        <time>2014-11-15T15:48:22Z</time>
      </trkpt>
      <trkpt lat="43.22561" lon="-0.28147">
        <ele>208.74</ele>
        <time>2014-11-15T15:48:24Z</time>
      </trkpt>
      <trkpt lat="43.22556" lon="-0.28179">
        <ele>210.19</ele>
        <time>2014-11-15T15:48:34Z</time>
      </trkpt>
      <trkpt lat="43.22542" lon="-0.28227">
        <ele>208.74</ele>
        <time>2014-11-15T15:48:50Z</time>
      </trkpt>
      <trkpt lat="43.22523" lon="-0.28288">
        <ele>209.7</ele>
        <time>2014-11-15T15:49:08Z</time>
      </trkpt>
      <trkpt lat="43.22507" lon="-0.28337">
        <ele>209.7</ele>
        <time>2014-11-15T15:49:24Z</time>
      </trkpt>
      <trkpt lat="43.22496" lon="-0.28373">
        <ele>209.7</ele>
        <time>2014-11-15T15:49:36Z</time>
      </trkpt>
      <trkpt lat="43.22496" lon="-0.28382">
        <ele>209.7</ele>
        <time>2014-11-15T15:49:40Z</time>
      </trkpt>
      <trkpt lat="43.22498" lon="-0.28389">
        <ele>209.7</ele>
        <time>2014-11-15T15:49:44Z</time>
      </trkpt>
      <trkpt lat="43.22521" lon="-0.28425">
        <ele>208.74</ele>
        <time>2014-11-15T15:50:03Z</time>
      </trkpt>
      <trkpt lat="43.22536" lon="-0.2845">
        <ele>208.74</ele>
        <time>2014-11-15T15:50:16Z</time>
      </trkpt>
      <trkpt lat="43.22564" lon="-0.28487">
        <ele>207.78</ele>
        <time>2014-11-15T15:50:32Z</time>
      </trkpt>
      <trkpt lat="43.22606" lon="-0.28548">
        <ele>207.78</ele>
        <time>2014-11-15T15:50:55Z</time>
      </trkpt>
      <trkpt lat="43.22619" lon="-0.28565">
        <ele>208.26</ele>
        <time>2014-11-15T15:51:03Z</time>
      </trkpt>
      <trkpt lat="43.22653" lon="-0.28609">
        <ele>208.74</ele>
        <time>2014-11-15T15:51:25Z</time>
      </trkpt>
      <trkpt lat="43.2266" lon="-0.28618">
        <ele>207.78</ele>
        <time>2014-11-15T15:51:31Z</time>
      </trkpt>
      <trkpt lat="43.22668" lon="-0.2863">
        <ele>209.22</ele>
        <time>2014-11-15T15:51:36Z</time>
      </trkpt>
      <trkpt lat="43.22681" lon="-0.28641">
        <ele>207.78</ele>
        <time>2014-11-15T15:51:41Z</time>
      </trkpt>
      <trkpt lat="43.22721" lon="-0.28684">
        <ele>207.3</ele>
        <time>2014-11-15T15:51:59Z</time>
      </trkpt>
      <trkpt lat="43.22751" lon="-0.28728">
        <ele>207.3</ele>
        <time>2014-11-15T15:52:17Z</time>
      </trkpt>
      <trkpt lat="43.2277" lon="-0.28765">
        <ele>207.78</ele>
        <time>2014-11-15T15:52:30Z</time>
      </trkpt>
      <trkpt lat="43.2278" lon="-0.28778">
        <ele>207.78</ele>
        <time>2014-11-15T15:52:37Z</time>
      </trkpt>
      <trkpt lat="43.22804" lon="-0.28779">
        <ele>206.82</ele>
        <time>2014-11-15T15:52:48Z</time>
      </trkpt>
      <trkpt lat="43.22861" lon="-0.28826">
        <ele>204.42</ele>
        <time>2014-11-15T15:53:08Z</time>
      </trkpt>
      <trkpt lat="43.22871" lon="-0.28836">
        <ele>205.86</ele>
        <time>2014-11-15T15:53:13Z</time>
      </trkpt>
      <trkpt lat="43.22879" lon="-0.28848">
        <ele>205.38</ele>
        <time>2014-11-15T15:53:19Z</time>
      </trkpt>
      <trkpt lat="43.22915" lon="-0.28881">
        <ele>205.38</ele>
        <time>2014-11-15T15:53:38Z</time>
      </trkpt>
      <trkpt lat="43.22951" lon="-0.2891">
        <ele>206.34</ele>
        <time>2014-11-15T15:53:56Z</time>
      </trkpt>
      <trkpt lat="43.22998" lon="-0.28941">
        <ele>205.86</ele>
        <time>2014-11-15T15:54:16Z</time>
      </trkpt>
      <trkpt lat="43.23017" lon="-0.28922">
        <ele>206.82</ele>
        <time>2014-11-15T15:54:30Z</time>
      </trkpt>
      <trkpt lat="43.23015" lon="-0.2893">
        <ele>206.34</ele>
        <time>2014-11-15T15:54:44Z</time>
      </trkpt>
      <trkpt lat="43.23014" lon="-0.28933">
        <ele>206.34</ele>
        <time>2014-11-15T15:55:06Z</time>
      </trkpt>
      <trkpt lat="43.23013" lon="-0.28934">
        <ele>206.82</ele>
        <time>2014-11-15T15:55:34Z</time>
      </trkpt>
      <trkpt lat="43.23015" lon="-0.28933">
        <ele>207.3</ele>
        <time>2014-11-15T15:55:42Z</time>
      </trkpt>
      <trkpt lat="43.23018" lon="-0.28929">
        <ele>207.3</ele>
        <time>2014-11-15T15:56:07Z</time>
      </trkpt>
      <trkpt lat="43.23017" lon="-0.28924">
        <ele>207.3</ele>
        <time>2014-11-15T15:56:32Z</time>
      </trkpt>
      <trkpt lat="43.23016" lon="-0.2893">
        <ele>207.3</ele>
        <time>2014-11-15T15:57:02Z</time>
      </trkpt>
      <trkpt lat="43.23016" lon="-0.28935">
        <ele>207.3</ele>
        <time>2014-11-15T15:57:26Z</time>
      </trkpt>
      <trkpt lat="43.23017" lon="-0.28934">
        <ele>205.86</ele>
        <time>2014-11-15T15:57:37Z</time>
      </trkpt>
      <trkpt lat="43.23019" lon="-0.28936">
        <ele>205.86</ele>
        <time>2014-11-15T15:58:02Z</time>
      </trkpt>
      <trkpt lat="43.23018" lon="-0.28933">
        <ele>207.3</ele>
        <time>2014-11-15T15:58:32Z</time>
      </trkpt>
      <trkpt lat="43.23018" lon="-0.28934">
        <ele>207.3</ele>
        <time>2014-11-15T15:59:06Z</time>
      </trkpt>
      <trkpt lat="43.23018" lon="-0.28934">
        <ele>207.78</ele>
        <time>2014-11-15T15:59:36Z</time>
      </trkpt>
      <trkpt lat="43.23017" lon="-0.28936">
        <ele>207.78</ele>
        <time>2014-11-15T16:00:03Z</time>
      </trkpt>
      <trkpt lat="43.23018" lon="-0.28933">
        <ele>206.82</ele>
        <time>2014-11-15T16:00:15Z</time>
      </trkpt>
      <trkpt lat="43.23027" lon="-0.2892">
        <ele>208.26</ele>
        <time>2014-11-15T16:00:20Z</time>
      </trkpt>
      <trkpt lat="43.2303" lon="-0.28914">
        <ele>207.3</ele>
        <time>2014-11-15T16:00:22Z</time>
      </trkpt>
      <trkpt lat="43.23057" lon="-0.28865">
        <ele>207.78</ele>
        <time>2014-11-15T16:00:40Z</time>
      </trkpt>
      <trkpt lat="43.23072" lon="-0.28834">
        <ele>206.34</ele>
        <time>2014-11-15T16:00:49Z</time>
      </trkpt>
      <trkpt lat="43.23074" lon="-0.28827">
        <ele>207.78</ele>
        <time>2014-11-15T16:00:55Z</time>
      </trkpt>
      <trkpt lat="43.23073" lon="-0.28822">
        <ele>206.82</ele>
        <time>2014-11-15T16:01:19Z</time>
      </trkpt>
      <trkpt lat="43.23072" lon="-0.28821">
        <ele>207.3</ele>
        <time>2014-11-15T16:01:42Z</time>
      </trkpt>
      <trkpt lat="43.23093" lon="-0.2879">
        <ele>206.82</ele>
        <time>2014-11-15T16:02:03Z</time>
      </trkpt>
      <trkpt lat="43.23107" lon="-0.28762">
        <ele>208.26</ele>
        <time>2014-11-15T16:02:19Z</time>
      </trkpt>
      <trkpt lat="43.23132" lon="-0.28713">
        <ele>206.82</ele>
        <time>2014-11-15T16:02:37Z</time>
      </trkpt>
      <trkpt lat="43.23165" lon="-0.28693">
        <ele>207.3</ele>
        <time>2014-11-15T16:02:51Z</time>
      </trkpt>
      <trkpt lat="43.23193" lon="-0.28702">
        <ele>207.3</ele>
        <time>2014-11-15T16:03:02Z</time>
      </trkpt>
      <trkpt lat="43.23196" lon="-0.28711">
        <ele>208.74</ele>
        <time>2014-11-15T16:03:05Z</time>
      </trkpt>
      <trkpt lat="43.23199" lon="-0.28761">
        <ele>207.3</ele>
        <time>2014-11-15T16:03:20Z</time>
      </trkpt>
      <trkpt lat="43.23192" lon="-0.28847">
        <ele>206.82</ele>
        <time>2014-11-15T16:03:44Z</time>
      </trkpt>
      <trkpt lat="43.23199" lon="-0.28889">
        <ele>206.34</ele>
        <time>2014-11-15T16:04:00Z</time>
      </trkpt>
      <trkpt lat="43.23236" lon="-0.28916">
        <ele>207.78</ele>
        <time>2014-11-15T16:04:17Z</time>
      </trkpt>
      <trkpt lat="43.23238" lon="-0.28918">
        <ele>207.78</ele>
        <time>2014-11-15T16:04:18Z</time>
      </trkpt>
      <trkpt lat="43.23254" lon="-0.28959">
        <ele>206.34</ele>
        <time>2014-11-15T16:04:33Z</time>
      </trkpt>
      <trkpt lat="43.23271" lon="-0.28985">
        <ele>205.86</ele>
        <time>2014-11-15T16:04:47Z</time>
      </trkpt>
      <trkpt lat="43.23274" lon="-0.28987">
        <ele>207.3</ele>
        <time>2014-11-15T16:04:49Z</time>
      </trkpt>
      <trkpt lat="43.23314" lon="-0.29017">
        <ele>206.34</ele>
        <time>2014-11-15T16:05:09Z</time>
      </trkpt>
      <trkpt lat="43.23347" lon="-0.29038">
        <ele>207.3</ele>
        <time>2014-11-15T16:05:26Z</time>
      </trkpt>
      <trkpt lat="43.23369" lon="-0.29052">
        <ele>207.78</ele>
        <time>2014-11-15T16:05:36Z</time>
      </trkpt>
      <trkpt lat="43.23384" lon="-0.29061">
        <ele>205.86</ele>
        <time>2014-11-15T16:05:43Z</time>
      </trkpt>
      <trkpt lat="43.23401" lon="-0.29072">
        <ele>206.82</ele>
        <time>2014-11-15T16:05:51Z</time>
      </trkpt>
      <trkpt lat="43.23422" lon="-0.29087">
        <ele>205.38</ele>
        <time>2014-11-15T16:06:01Z</time>
      </trkpt>
      <trkpt lat="43.23428" lon="-0.29091">
        <ele>207.3</ele>
        <time>2014-11-15T16:06:04Z</time>
      </trkpt>
      <trkpt lat="43.23443" lon="-0.29101">
        <ele>205.38</ele>
        <time>2014-11-15T16:06:11Z</time>
      </trkpt>
      <trkpt lat="43.23453" lon="-0.29106">
        <ele>207.3</ele>
        <time>2014-11-15T16:06:15Z</time>
      </trkpt>
      <trkpt lat="43.23466" lon="-0.29115">
        <ele>205.38</ele>
        <time>2014-11-15T16:06:21Z</time>
      </trkpt>
      <trkpt lat="43.23507" lon="-0.29143">
        <ele>206.34</ele>
        <time>2014-11-15T16:06:39Z</time>
      </trkpt>
      <trkpt lat="43.23553" lon="-0.29172">
        <ele>204.42</ele>
        <time>2014-11-15T16:06:59Z</time>
      </trkpt>
      <trkpt lat="43.23571" lon="-0.29184">
        <ele>204.42</ele>
        <time>2014-11-15T16:07:09Z</time>
      </trkpt>
      <trkpt lat="43.2361" lon="-0.29208">
        <ele>205.38</ele>
        <time>2014-11-15T16:07:26Z</time>
      </trkpt>
      <trkpt lat="43.2364" lon="-0.29223">
        <ele>205.38</ele>
        <time>2014-11-15T16:07:42Z</time>
      </trkpt>
      <trkpt lat="43.23644" lon="-0.29227">
        <ele>203.94</ele>
        <time>2014-11-15T16:07:45Z</time>
      </trkpt>
      <trkpt lat="43.23649" lon="-0.29231">
        <ele>205.86</ele>
        <time>2014-11-15T16:07:48Z</time>
      </trkpt>
      <trkpt lat="43.23689" lon="-0.29254">
        <ele>204.9</ele>
        <time>2014-11-15T16:08:10Z</time>
      </trkpt>
      <trkpt lat="43.23723" lon="-0.29278">
        <ele>205.86</ele>
        <time>2014-11-15T16:08:27Z</time>
      </trkpt>
      <trkpt lat="43.23773" lon="-0.29306">
        <ele>205.86</ele>
        <time>2014-11-15T16:08:48Z</time>
      </trkpt>
      <trkpt lat="43.23817" lon="-0.29327">
        <ele>203.94</ele>
        <time>2014-11-15T16:09:08Z</time>
      </trkpt>
      <trkpt lat="43.23842" lon="-0.29367">
        <ele>203.46</ele>
        <time>2014-11-15T16:09:24Z</time>
      </trkpt>
      <trkpt lat="43.23875" lon="-0.29421">
        <ele>202.49</ele>
        <time>2014-11-15T16:09:46Z</time>
      </trkpt>
      <trkpt lat="43.23876" lon="-0.29424">
        <ele>202.49</ele>
        <time>2014-11-15T16:09:47Z</time>
      </trkpt>
      <trkpt lat="43.23889" lon="-0.29437">
        <ele>204.9</ele>
        <time>2014-11-15T16:09:55Z</time>
      </trkpt>
      <trkpt lat="43.23903" lon="-0.29438">
        <ele>203.46</ele>
        <time>2014-11-15T16:10:01Z</time>
      </trkpt>
      <trkpt lat="43.23912" lon="-0.29477">
        <ele>201.53</ele>
        <time>2014-11-15T16:10:12Z</time>
      </trkpt>
      <trkpt lat="43.23914" lon="-0.29498">
        <ele>202.98</ele>
        <time>2014-11-15T16:10:19Z</time>
      </trkpt>
      <trkpt lat="43.23927" lon="-0.29567">
        <ele>202.01</ele>
        <time>2014-11-15T16:10:41Z</time>
      </trkpt>
      <trkpt lat="43.2393" lon="-0.29577">
        <ele>203.46</ele>
        <time>2014-11-15T16:10:44Z</time>
      </trkpt>
      <trkpt lat="43.23944" lon="-0.29626">
        <ele>203.46</ele>
        <time>2014-11-15T16:11:01Z</time>
      </trkpt>
      <trkpt lat="43.23958" lon="-0.29668">
        <ele>203.94</ele>
        <time>2014-11-15T16:11:19Z</time>
      </trkpt>
      <trkpt lat="43.23964" lon="-0.29698">
        <ele>202.98</ele>
        <time>2014-11-15T16:11:35Z</time>
      </trkpt>
      <trkpt lat="43.23979" lon="-0.29744">
        <ele>203.94</ele>
        <time>2014-11-15T16:11:49Z</time>
      </trkpt>
      <trkpt lat="43.23981" lon="-0.29751">
        <ele>202.49</ele>
        <time>2014-11-15T16:11:51Z</time>
      </trkpt>
      <trkpt lat="43.24005" lon="-0.29802">
        <ele>204.42</ele>
        <time>2014-11-15T16:12:09Z</time>
      </trkpt>
      <trkpt lat="43.24013" lon="-0.29815">
        <ele>203.94</ele>
        <time>2014-11-15T16:12:14Z</time>
      </trkpt>
      <trkpt lat="43.24016" lon="-0.2982">
        <ele>202.01</ele>
        <time>2014-11-15T16:12:16Z</time>
      </trkpt>
      <trkpt lat="43.24023" lon="-0.2983">
        <ele>202.01</ele>
        <time>2014-11-15T16:12:20Z</time>
      </trkpt>
      <trkpt lat="43.24064" lon="-0.29881">
        <ele>202.01</ele>
        <time>2014-11-15T16:12:42Z</time>
      </trkpt>
      <trkpt lat="43.24102" lon="-0.29918">
        <ele>201.05</ele>
        <time>2014-11-15T16:13:01Z</time>
      </trkpt>
      <trkpt lat="43.24104" lon="-0.2992">
        <ele>201.05</ele>
        <time>2014-11-15T16:13:02Z</time>
      </trkpt>
      <trkpt lat="43.24148" lon="-0.29955">
        <ele>201.05</ele>
        <time>2014-11-15T16:13:23Z</time>
      </trkpt>
      <trkpt lat="43.24154" lon="-0.29959">
        <ele>202.49</ele>
        <time>2014-11-15T16:13:26Z</time>
      </trkpt>
      <trkpt lat="43.24159" lon="-0.29962">
        <ele>200.09</ele>
        <time>2014-11-15T16:13:28Z</time>
      </trkpt>
      <trkpt lat="43.24206" lon="-0.30003">
        <ele>200.09</ele>
        <time>2014-11-15T16:13:50Z</time>
      </trkpt>
      <trkpt lat="43.24242" lon="-0.30047">
        <ele>201.05</ele>
        <time>2014-11-15T16:14:09Z</time>
      </trkpt>
      <trkpt lat="43.24272" lon="-0.30092">
        <ele>201.05</ele>
        <time>2014-11-15T16:14:27Z</time>
      </trkpt>
      <trkpt lat="43.24296" lon="-0.3013">
        <ele>201.05</ele>
        <time>2014-11-15T16:14:42Z</time>
      </trkpt>
      <trkpt lat="43.24303" lon="-0.3014">
        <ele>200.09</ele>
        <time>2014-11-15T16:14:46Z</time>
      </trkpt>
      <trkpt lat="43.24337" lon="-0.30194">
        <ele>199.61</ele>
        <time>2014-11-15T16:15:07Z</time>
      </trkpt>
      <trkpt lat="43.24342" lon="-0.30202">
        <ele>200.57</ele>
        <time>2014-11-15T16:15:10Z</time>
      </trkpt>
      <trkpt lat="43.24375" lon="-0.30253">
        <ele>200.57</ele>
        <time>2014-11-15T16:15:29Z</time>
      </trkpt>
      <trkpt lat="43.24386" lon="-0.3027">
        <ele>199.13</ele>
        <time>2014-11-15T16:15:36Z</time>
      </trkpt>
      <trkpt lat="43.24398" lon="-0.30289">
        <ele>200.57</ele>
        <time>2014-11-15T16:15:44Z</time>
      </trkpt>
      <trkpt lat="43.24427" lon="-0.30335">
        <ele>198.17</ele>
        <time>2014-11-15T16:16:05Z</time>
      </trkpt>
      <trkpt lat="43.24456" lon="-0.30383">
        <ele>197.69</ele>
        <time>2014-11-15T16:16:26Z</time>
      </trkpt>
      <trkpt lat="43.24458" lon="-0.30394">
        <ele>199.13</ele>
        <time>2014-11-15T16:16:29Z</time>
      </trkpt>
      <trkpt lat="43.24466" lon="-0.3044">
        <ele>198.65</ele>
        <time>2014-11-15T16:16:44Z</time>
      </trkpt>
      <trkpt lat="43.24478" lon="-0.30478">
        <ele>198.17</ele>
        <time>2014-11-15T16:16:58Z</time>
      </trkpt>
      <trkpt lat="43.24469" lon="-0.30547">
        <ele>199.61</ele>
        <time>2014-11-15T16:17:20Z</time>
      </trkpt>
      <trkpt lat="43.24465" lon="-0.30574">
        <ele>197.21</ele>
        <time>2014-11-15T16:17:29Z</time>
      </trkpt>
      <trkpt lat="43.24457" lon="-0.30634">
        <ele>198.17</ele>
        <time>2014-11-15T16:17:48Z</time>
      </trkpt>
      <trkpt lat="43.24457" lon="-0.30645">
        <ele>200.09</ele>
        <time>2014-11-15T16:17:52Z</time>
      </trkpt>
      <trkpt lat="43.24456" lon="-0.30652">
        <ele>199.13</ele>
        <time>2014-11-15T16:17:54Z</time>
      </trkpt>
      <trkpt lat="43.24453" lon="-0.30673">
        <ele>200.57</ele>
        <time>2014-11-15T16:18:01Z</time>
      </trkpt>
      <trkpt lat="43.2445" lon="-0.30684">
        <ele>199.13</ele>
        <time>2014-11-15T16:18:06Z</time>
      </trkpt>
      <trkpt lat="43.24446" lon="-0.30713">
        <ele>200.57</ele>
        <time>2014-11-15T16:18:23Z</time>
      </trkpt>
      <trkpt lat="43.2444" lon="-0.30748">
        <ele>201.05</ele>
        <time>2014-11-15T16:18:39Z</time>
      </trkpt>
      <trkpt lat="43.24439" lon="-0.30757">
        <ele>202.01</ele>
        <time>2014-11-15T16:18:45Z</time>
      </trkpt>
      <trkpt lat="43.24438" lon="-0.30761">
        <ele>201.05</ele>
        <time>2014-11-15T16:18:47Z</time>
      </trkpt>
      <trkpt lat="43.24438" lon="-0.30767">
        <ele>202.01</ele>
        <time>2014-11-15T16:18:49Z</time>
      </trkpt>
      <trkpt lat="43.24434" lon="-0.30798">
        <ele>201.05</ele>
        <time>2014-11-15T16:18:59Z</time>
      </trkpt>
      <trkpt lat="43.24433" lon="-0.30804">
        <ele>202.49</ele>
        <time>2014-11-15T16:19:01Z</time>
      </trkpt>
      <trkpt lat="43.24427" lon="-0.30852">
        <ele>202.49</ele>
        <time>2014-11-15T16:19:19Z</time>
      </trkpt>
      <trkpt lat="43.24426" lon="-0.30858">
        <ele>200.57</ele>
        <time>2014-11-15T16:19:21Z</time>
      </trkpt>
      <trkpt lat="43.24422" lon="-0.3088">
        <ele>200.09</ele>
        <time>2014-11-15T16:19:28Z</time>
      </trkpt>
      <trkpt lat="43.24412" lon="-0.30943">
        <ele>198.65</ele>
        <time>2014-11-15T16:19:50Z</time>
      </trkpt>
      <trkpt lat="43.24411" lon="-0.30945">
        <ele>198.65</ele>
        <time>2014-11-15T16:19:51Z</time>
      </trkpt>
      <trkpt lat="43.2439" lon="-0.30964">
        <ele>197.69</ele>
        <time>2014-11-15T16:20:03Z</time>
      </trkpt>
      <trkpt lat="43.24344" lon="-0.30956">
        <ele>198.17</ele>
        <time>2014-11-15T16:20:23Z</time>
      </trkpt>
      <trkpt lat="43.24303" lon="-0.30953">
        <ele>198.65</ele>
        <time>2014-11-15T16:20:40Z</time>
      </trkpt>
      <trkpt lat="43.24301" lon="-0.30953">
        <ele>198.65</ele>
        <time>2014-11-15T16:20:49Z</time>
      </trkpt>
      <trkpt lat="43.24292" lon="-0.30952">
        <ele>197.69</ele>
        <time>2014-11-15T16:20:53Z</time>
      </trkpt>
      <trkpt lat="43.2426" lon="-0.3095">
        <ele>197.69</ele>
        <time>2014-11-15T16:21:06Z</time>
      </trkpt>
      <trkpt lat="43.24229" lon="-0.30965">
        <ele>198.17</ele>
        <time>2014-11-15T16:21:22Z</time>
      </trkpt>
      <trkpt lat="43.24225" lon="-0.30973">
        <ele>199.13</ele>
        <time>2014-11-15T16:21:24Z</time>
      </trkpt>
      <trkpt lat="43.2421" lon="-0.30995">
        <ele>198.65</ele>
        <time>2014-11-15T16:21:33Z</time>
      </trkpt>
      <trkpt lat="43.24203" lon="-0.31004">
        <ele>200.09</ele>
        <time>2014-11-15T16:21:41Z</time>
      </trkpt>
      <trkpt lat="43.24201" lon="-0.30995">
        <ele>201.05</ele>
        <time>2014-11-15T16:21:48Z</time>
      </trkpt>
      <trkpt lat="43.24185" lon="-0.30971">
        <ele>201.05</ele>
        <time>2014-11-15T16:21:59Z</time>
      </trkpt>
      <trkpt lat="43.24169" lon="-0.30959">
        <ele>202.01</ele>
        <time>2014-11-15T16:22:07Z</time>
      </trkpt>
      <trkpt lat="43.24139" lon="-0.30942">
        <ele>201.05</ele>
        <time>2014-11-15T16:22:21Z</time>
      </trkpt>
      <trkpt lat="43.24114" lon="-0.30917">
        <ele>200.57</ele>
        <time>2014-11-15T16:22:40Z</time>
      </trkpt>
      <trkpt lat="43.24114" lon="-0.309">
        <ele>199.61</ele>
        <time>2014-11-15T16:22:46Z</time>
      </trkpt>
      <trkpt lat="43.24113" lon="-0.30897">
        <ele>199.61</ele>
        <time>2014-11-15T16:22:47Z</time>
      </trkpt>
      <trkpt lat="43.24116" lon="-0.30889">
        <ele>196.73</ele>
        <time>2014-11-15T16:22:50Z</time>
      </trkpt>
      <trkpt lat="43.24113" lon="-0.30882">
        <ele>198.65</ele>
        <time>2014-11-15T16:22:53Z</time>
      </trkpt>
      <trkpt lat="43.2411" lon="-0.30878">
        <ele>198.65</ele>
        <time>2014-11-15T16:22:55Z</time>
      </trkpt>
      <trkpt lat="43.241" lon="-0.30837">
        <ele>197.69</ele>
        <time>2014-11-15T16:23:12Z</time>
      </trkpt>
      <trkpt lat="43.24098" lon="-0.30823">
        <ele>199.61</ele>
        <time>2014-11-15T16:23:16Z</time>
      </trkpt>
      <trkpt lat="43.24073" lon="-0.30775">
        <ele>198.65</ele>
        <time>2014-11-15T16:23:35Z</time>
      </trkpt>
      <trkpt lat="43.24074" lon="-0.3076">
        <ele>198.65</ele>
        <time>2014-11-15T16:23:41Z</time>
      </trkpt>
      <trkpt lat="43.24066" lon="-0.30756">
        <ele>198.65</ele>
        <time>2014-11-15T16:23:45Z</time>
      </trkpt>
      <trkpt lat="43.24034" lon="-0.3075">
        <ele>199.13</ele>
        <time>2014-11-15T16:23:59Z</time>
      </trkpt>
      <trkpt lat="43.23988" lon="-0.30742">
        <ele>197.69</ele>
        <time>2014-11-15T16:24:18Z</time>
      </trkpt>
      <trkpt lat="43.23979" lon="-0.30739">
        <ele>199.13</ele>
        <time>2014-11-15T16:24:23Z</time>
      </trkpt>
      <trkpt lat="43.23951" lon="-0.3072">
        <ele>198.17</ele>
        <time>2014-11-15T16:24:36Z</time>
      </trkpt>
      <trkpt lat="43.2394" lon="-0.30716">
        <ele>199.13</ele>
        <time>2014-11-15T16:24:41Z</time>
      </trkpt>
      <trkpt lat="43.23898" lon="-0.30718">
        <ele>200.09</ele>
        <time>2014-11-15T16:24:57Z</time>
      </trkpt>
      <trkpt lat="43.23874" lon="-0.30712">
        <ele>200.09</ele>
        <time>2014-11-15T16:25:07Z</time>
      </trkpt>
      <trkpt lat="43.23842" lon="-0.3068">
        <ele>198.65</ele>
        <time>2014-11-15T16:25:24Z</time>
      </trkpt>
      <trkpt lat="43.23841" lon="-0.30674">
        <ele>200.09</ele>
        <time>2014-11-15T16:25:26Z</time>
      </trkpt>
      <trkpt lat="43.23842" lon="-0.30666">
        <ele>200.09</ele>
        <time>2014-11-15T16:25:31Z</time>
      </trkpt>
      <trkpt lat="43.23846" lon="-0.30628">
        <ele>200.57</ele>
        <time>2014-11-15T16:25:49Z</time>
      </trkpt>
      <trkpt lat="43.23842" lon="-0.30623">
        <ele>199.13</ele>
        <time>2014-11-15T16:25:52Z</time>
      </trkpt>
      <trkpt lat="43.23836" lon="-0.30602">
        <ele>200.57</ele>
        <time>2014-11-15T16:26:01Z</time>
      </trkpt>
      <trkpt lat="43.23832" lon="-0.30596">
        <ele>198.65</ele>
        <time>2014-11-15T16:26:04Z</time>
      </trkpt>
      <trkpt lat="43.23829" lon="-0.30592">
        <ele>200.57</ele>
        <time>2014-11-15T16:26:06Z</time>
      </trkpt>
      <trkpt lat="43.2381" lon="-0.30548">
        <ele>201.05</ele>
        <time>2014-11-15T16:26:22Z</time>
      </trkpt>
      <trkpt lat="43.23786" lon="-0.30507">
        <ele>200.57</ele>
        <time>2014-11-15T16:26:41Z</time>
      </trkpt>
      <trkpt lat="43.23762" lon="-0.30461">
        <ele>200.09</ele>
        <time>2014-11-15T16:27:01Z</time>
      </trkpt>
      <trkpt lat="43.23752" lon="-0.30447">
        <ele>200.57</ele>
        <time>2014-11-15T16:27:09Z</time>
      </trkpt>
      <trkpt lat="43.23731" lon="-0.30421">
        <ele>201.53</ele>
        <time>2014-11-15T16:27:23Z</time>
      </trkpt>
      <trkpt lat="43.23716" lon="-0.30387">
        <ele>201.53</ele>
        <time>2014-11-15T16:27:34Z</time>
      </trkpt>
      <trkpt lat="43.23714" lon="-0.30378">
        <ele>201.53</ele>
        <time>2014-11-15T16:27:38Z</time>
      </trkpt>
      <trkpt lat="43.23713" lon="-0.30373">
        <ele>201.53</ele>
        <time>2014-11-15T16:27:40Z</time>
      </trkpt>
      <trkpt lat="43.23706" lon="-0.3036">
        <ele>201.53</ele>
        <time>2014-11-15T16:27:47Z</time>
      </trkpt>
      <trkpt lat="43.23691" lon="-0.30323">
        <ele>200.57</ele>
        <time>2014-11-15T16:28:01Z</time>
      </trkpt>
      <trkpt lat="43.23685" lon="-0.30303">
        <ele>202.01</ele>
        <time>2014-11-15T16:28:07Z</time>
      </trkpt>
      <trkpt lat="43.2366" lon="-0.30242">
        <ele>201.05</ele>
        <time>2014-11-15T16:28:27Z</time>
      </trkpt>
      <trkpt lat="43.23648" lon="-0.30214">
        <ele>202.98</ele>
        <time>2014-11-15T16:28:36Z</time>
      </trkpt>
      <trkpt lat="43.23622" lon="-0.30173">
        <ele>202.49</ele>
        <time>2014-11-15T16:28:52Z</time>
      </trkpt>
      <trkpt lat="43.23586" lon="-0.30157">
        <ele>203.94</ele>
        <time>2014-11-15T16:29:09Z</time>
      </trkpt>
      <trkpt lat="43.23545" lon="-0.30133">
        <ele>203.94</ele>
        <time>2014-11-15T16:29:28Z</time>
      </trkpt>
      <trkpt lat="43.23536" lon="-0.3012">
        <ele>203.94</ele>
        <time>2014-11-15T16:29:33Z</time>
      </trkpt>
      <trkpt lat="43.23509" lon="-0.3008">
        <ele>203.94</ele>
        <time>2014-11-15T16:29:50Z</time>
      </trkpt>
      <trkpt lat="43.23486" lon="-0.30036">
        <ele>203.94</ele>
        <time>2014-11-15T16:30:08Z</time>
      </trkpt>
      <trkpt lat="43.23481" lon="-0.30027">
        <ele>202.49</ele>
        <time>2014-11-15T16:30:12Z</time>
      </trkpt>
      <trkpt lat="43.23455" lon="-0.29997">
        <ele>199.61</ele>
        <time>2014-11-15T16:30:26Z</time>
      </trkpt>
      <trkpt lat="43.23439" lon="-0.29979">
        <ele>201.05</ele>
        <time>2014-11-15T16:30:34Z</time>
      </trkpt>
      <trkpt lat="43.23404" lon="-0.2995">
        <ele>202.01</ele>
        <time>2014-11-15T16:30:50Z</time>
      </trkpt>
      <trkpt lat="43.23361" lon="-0.2993">
        <ele>205.38</ele>
        <time>2014-11-15T16:31:09Z</time>
      </trkpt>
      <trkpt lat="43.2335" lon="-0.29907">
        <ele>206.34</ele>
        <time>2014-11-15T16:31:22Z</time>
      </trkpt>
      <trkpt lat="43.2335" lon="-0.29897">
        <ele>206.34</ele>
        <time>2014-11-15T16:31:39Z</time>
      </trkpt>
      <trkpt lat="43.23351" lon="-0.29872">
        <ele>205.86</ele>
        <time>2014-11-15T16:31:57Z</time>
      </trkpt>
      <trkpt lat="43.23354" lon="-0.2987">
        <ele>205.86</ele>
        <time>2014-11-15T16:32:19Z</time>
      </trkpt>
      <trkpt lat="43.23351" lon="-0.29869">
        <ele>205.86</ele>
        <time>2014-11-15T16:32:42Z</time>
      </trkpt>
      <trkpt lat="43.23352" lon="-0.29879">
        <ele>204.9</ele>
        <time>2014-11-15T16:33:05Z</time>
      </trkpt>
      <trkpt lat="43.23351" lon="-0.29881">
        <ele>204.9</ele>
        <time>2014-11-15T16:33:36Z</time>
      </trkpt>
      <trkpt lat="43.23349" lon="-0.29879">
        <ele>204.42</ele>
        <time>2014-11-15T16:34:12Z</time>
      </trkpt>
      <trkpt lat="43.2335" lon="-0.29873">
        <ele>204.9</ele>
        <time>2014-11-15T16:34:22Z</time>
      </trkpt>
      <trkpt lat="43.23354" lon="-0.2984">
        <ele>204.42</ele>
        <time>2014-11-15T16:34:32Z</time>
      </trkpt>
      <trkpt lat="43.2335" lon="-0.29797">
        <ele>205.86</ele>
        <time>2014-11-15T16:34:45Z</time>
      </trkpt>
      <trkpt lat="43.23348" lon="-0.29784">
        <ele>205.38</ele>
        <time>2014-11-15T16:34:49Z</time>
      </trkpt>
      <trkpt lat="43.23336" lon="-0.29732">
        <ele>203.46</ele>
        <time>2014-11-15T16:35:06Z</time>
      </trkpt>
      <trkpt lat="43.23334" lon="-0.2971">
        <ele>204.9</ele>
        <time>2014-11-15T16:35:11Z</time>
      </trkpt>
      <trkpt lat="43.23325" lon="-0.29671">
        <ele>204.9</ele>
        <time>2014-11-15T16:35:21Z</time>
      </trkpt>
      <trkpt lat="43.2332" lon="-0.29657">
        <ele>202.98</ele>
        <time>2014-11-15T16:35:25Z</time>
      </trkpt>
      <trkpt lat="43.23318" lon="-0.2965">
        <ele>205.38</ele>
        <time>2014-11-15T16:35:27Z</time>
      </trkpt>
      <trkpt lat="43.23313" lon="-0.29637">
        <ele>203.94</ele>
        <time>2014-11-15T16:35:31Z</time>
      </trkpt>
      <trkpt lat="43.23279" lon="-0.2959">
        <ele>204.9</ele>
        <time>2014-11-15T16:35:47Z</time>
      </trkpt>
      <trkpt lat="43.23263" lon="-0.29573">
        <ele>203.94</ele>
        <time>2014-11-15T16:35:55Z</time>
      </trkpt>
      <trkpt lat="43.23256" lon="-0.29563">
        <ele>205.38</ele>
        <time>2014-11-15T16:35:59Z</time>
      </trkpt>
      <trkpt lat="43.23251" lon="-0.29553">
        <ele>204.42</ele>
        <time>2014-11-15T16:36:03Z</time>
      </trkpt>
      <trkpt lat="43.23243" lon="-0.29536">
        <ele>204.9</ele>
        <time>2014-11-15T16:36:10Z</time>
      </trkpt>
      <trkpt lat="43.23235" lon="-0.29515">
        <ele>203.94</ele>
        <time>2014-11-15T16:36:18Z</time>
      </trkpt>
      <trkpt lat="43.23202" lon="-0.29457">
        <ele>205.38</ele>
        <time>2014-11-15T16:36:38Z</time>
      </trkpt>
      <trkpt lat="43.23166" lon="-0.29458">
        <ele>207.78</ele>
        <time>2014-11-15T16:36:53Z</time>
      </trkpt>
      <trkpt lat="43.2315" lon="-0.2946">
        <ele>207.3</ele>
        <time>2014-11-15T16:37:00Z</time>
      </trkpt>
      <trkpt lat="43.23144" lon="-0.29461">
        <ele>208.26</ele>
        <time>2014-11-15T16:37:03Z</time>
      </trkpt>
      <trkpt lat="43.23098" lon="-0.29476">
        <ele>208.74</ele>
        <time>2014-11-15T16:37:24Z</time>
      </trkpt>
      <trkpt lat="43.23063" lon="-0.29476">
        <ele>209.22</ele>
        <time>2014-11-15T16:37:40Z</time>
      </trkpt>
      <trkpt lat="43.23061" lon="-0.29476">
        <ele>209.22</ele>
        <time>2014-11-15T16:37:41Z</time>
      </trkpt>
      <trkpt lat="43.23057" lon="-0.29476">
        <ele>207.3</ele>
        <time>2014-11-15T16:37:43Z</time>
      </trkpt>
      <trkpt lat="43.23013" lon="-0.29477">
        <ele>208.26</ele>
        <time>2014-11-15T16:38:00Z</time>
      </trkpt>
      <trkpt lat="43.22979" lon="-0.29476">
        <ele>206.82</ele>
        <time>2014-11-15T16:38:16Z</time>
      </trkpt>
      <trkpt lat="43.22945" lon="-0.29468">
        <ele>206.34</ele>
        <time>2014-11-15T16:38:31Z</time>
      </trkpt>
      <trkpt lat="43.22939" lon="-0.29466">
        <ele>207.3</ele>
        <time>2014-11-15T16:38:34Z</time>
      </trkpt>
      <trkpt lat="43.22908" lon="-0.29451">
        <ele>207.78</ele>
        <time>2014-11-15T16:38:52Z</time>
      </trkpt>
      <trkpt lat="43.22889" lon="-0.29432">
        <ele>207.3</ele>
        <time>2014-11-15T16:39:02Z</time>
      </trkpt>
      <trkpt lat="43.22852" lon="-0.29401">
        <ele>209.22</ele>
        <time>2014-11-15T16:39:18Z</time>
      </trkpt>
      <trkpt lat="43.22845" lon="-0.2939">
        <ele>205.86</ele>
        <time>2014-11-15T16:39:25Z</time>
      </trkpt>
      <trkpt lat="43.22842" lon="-0.29386">
        <ele>205.86</ele>
        <time>2014-11-15T16:39:28Z</time>
      </trkpt>
      <trkpt lat="43.22835" lon="-0.29383">
        <ele>208.26</ele>
        <time>2014-11-15T16:39:32Z</time>
      </trkpt>
      <trkpt lat="43.22804" lon="-0.29345">
        <ele>205.86</ele>
        <time>2014-11-15T16:39:48Z</time>
      </trkpt>
      <trkpt lat="43.22797" lon="-0.29332">
        <ele>207.3</ele>
        <time>2014-11-15T16:39:54Z</time>
      </trkpt>
      <trkpt lat="43.22783" lon="-0.29296">
        <ele>206.34</ele>
        <time>2014-11-15T16:40:10Z</time>
      </trkpt>
      <trkpt lat="43.22783" lon="-0.29294">
        <ele>206.34</ele>
        <time>2014-11-15T16:40:11Z</time>
      </trkpt>
      <trkpt lat="43.22778" lon="-0.29247">
        <ele>207.3</ele>
        <time>2014-11-15T16:40:28Z</time>
      </trkpt>
      <trkpt lat="43.22772" lon="-0.29236">
        <ele>207.3</ele>
        <time>2014-11-15T16:40:34Z</time>
      </trkpt>
      <trkpt lat="43.22732" lon="-0.29168">
        <ele>207.3</ele>
        <time>2014-11-15T16:40:55Z</time>
      </trkpt>
      <trkpt lat="43.22723" lon="-0.29149">
        <ele>206.82</ele>
        <time>2014-11-15T16:41:03Z</time>
      </trkpt>
      <trkpt lat="43.22711" lon="-0.29104">
        <ele>206.34</ele>
        <time>2014-11-15T16:41:17Z</time>
      </trkpt>
      <trkpt lat="43.22699" lon="-0.29062">
        <ele>207.3</ele>
        <time>2014-11-15T16:41:30Z</time>
      </trkpt>
      <trkpt lat="43.22651" lon="-0.29009">
        <ele>205.86</ele>
        <time>2014-11-15T16:41:49Z</time>
      </trkpt>
      <trkpt lat="43.22629" lon="-0.28996">
        <ele>207.3</ele>
        <time>2014-11-15T16:41:56Z</time>
      </trkpt>
      <trkpt lat="43.22589" lon="-0.28982">
        <ele>206.82</ele>
        <time>2014-11-15T16:42:13Z</time>
      </trkpt>
      <trkpt lat="43.22557" lon="-0.28941">
        <ele>206.34</ele>
        <time>2014-11-15T16:42:30Z</time>
      </trkpt>
      <trkpt lat="43.22535" lon="-0.28904">
        <ele>205.86</ele>
        <time>2014-11-15T16:42:48Z</time>
      </trkpt>
      <trkpt lat="43.22524" lon="-0.28878">
        <ele>205.86</ele>
        <time>2014-11-15T16:42:56Z</time>
      </trkpt>
      <trkpt lat="43.2251" lon="-0.28847">
        <ele>206.82</ele>
        <time>2014-11-15T16:43:05Z</time>
      </trkpt>
      <trkpt lat="43.22498" lon="-0.2882">
        <ele>206.34</ele>
        <time>2014-11-15T16:43:14Z</time>
      </trkpt>
      <trkpt lat="43.22472" lon="-0.28796">
        <ele>206.34</ele>
        <time>2014-11-15T16:43:28Z</time>
      </trkpt>
      <trkpt lat="43.22458" lon="-0.28786">
        <ele>205.38</ele>
        <time>2014-11-15T16:43:35Z</time>
      </trkpt>
      <trkpt lat="43.22445" lon="-0.28784">
        <ele>205.38</ele>
        <time>2014-11-15T16:43:40Z</time>
      </trkpt>
      <trkpt lat="43.2242" lon="-0.28772">
        <ele>205.38</ele>
        <time>2014-11-15T16:43:52Z</time>
      </trkpt>
      <trkpt lat="43.22381" lon="-0.28743">
        <ele>205.38</ele>
        <time>2014-11-15T16:44:09Z</time>
      </trkpt>
      <trkpt lat="43.22348" lon="-0.28736">
        <ele>203.46</ele>
        <time>2014-11-15T16:44:19Z</time>
      </trkpt>
      <trkpt lat="43.2234" lon="-0.28735">
        <ele>204.9</ele>
        <time>2014-11-15T16:44:22Z</time>
      </trkpt>
      <trkpt lat="43.22336" lon="-0.28733">
        <ele>203.46</ele>
        <time>2014-11-15T16:44:24Z</time>
      </trkpt>
      <trkpt lat="43.2232" lon="-0.28732">
        <ele>204.9</ele>
        <time>2014-11-15T16:44:31Z</time>
      </trkpt>
      <trkpt lat="43.22294" lon="-0.28729">
        <ele>205.38</ele>
        <time>2014-11-15T16:44:42Z</time>
      </trkpt>
      <trkpt lat="43.22283" lon="-0.28733">
        <ele>205.86</ele>
        <time>2014-11-15T16:44:47Z</time>
      </trkpt>
      <trkpt lat="43.22268" lon="-0.2877">
        <ele>206.34</ele>
        <time>2014-11-15T16:45:03Z</time>
      </trkpt>
      <trkpt lat="43.22267" lon="-0.28777">
        <ele>204.9</ele>
        <time>2014-11-15T16:45:06Z</time>
      </trkpt>
      <trkpt lat="43.22264" lon="-0.28797">
        <ele>206.34</ele>
        <time>2014-11-15T16:45:13Z</time>
      </trkpt>
      <trkpt lat="43.22253" lon="-0.28829">
        <ele>206.34</ele>
        <time>2014-11-15T16:45:27Z</time>
      </trkpt>
      <trkpt lat="43.22252" lon="-0.28833">
        <ele>205.38</ele>
        <time>2014-11-15T16:45:30Z</time>
      </trkpt>
      <trkpt lat="43.22244" lon="-0.28851">
        <ele>205.38</ele>
        <time>2014-11-15T16:45:39Z</time>
      </trkpt>
      <trkpt lat="43.22234" lon="-0.28867">
        <ele>206.34</ele>
        <time>2014-11-15T16:45:52Z</time>
      </trkpt>
      <trkpt lat="43.22226" lon="-0.28878">
        <ele>206.82</ele>
        <time>2014-11-15T16:46:01Z</time>
      </trkpt>
      <trkpt lat="43.22216" lon="-0.28879">
        <ele>206.34</ele>
        <time>2014-11-15T16:46:10Z</time>
      </trkpt>
      <trkpt lat="43.22199" lon="-0.28866">
        <ele>204.9</ele>
        <time>2014-11-15T16:46:27Z</time>
      </trkpt>
      <trkpt lat="43.22197" lon="-0.28865">
        <ele>206.34</ele>
        <time>2014-11-15T16:46:29Z</time>
      </trkpt>
      <trkpt lat="43.22176" lon="-0.28841">
        <ele>206.82</ele>
        <time>2014-11-15T16:46:47Z</time>
      </trkpt>
      <trkpt lat="43.22164" lon="-0.28828">
        <ele>205.38</ele>
        <time>2014-11-15T16:46:53Z</time>
      </trkpt>
      <trkpt lat="43.22134" lon="-0.28804">
        <ele>204.9</ele>
        <time>2014-11-15T16:47:07Z</time>
      </trkpt>
      <trkpt lat="43.22108" lon="-0.28784">
        <ele>205.86</ele>
        <time>2014-11-15T16:47:22Z</time>
      </trkpt>
      <trkpt lat="43.22091" lon="-0.28772">
        <ele>205.86</ele>
        <time>2014-11-15T16:47:31Z</time>
      </trkpt>
      <trkpt lat="43.22085" lon="-0.28766">
        <ele>207.78</ele>
        <time>2014-11-15T16:47:35Z</time>
      </trkpt>
      <trkpt lat="43.22084" lon="-0.28764">
        <ele>207.78</ele>
        <time>2014-11-15T16:47:36Z</time>
      </trkpt>
      <trkpt lat="43.22084" lon="-0.28755">
        <ele>207.3</ele>
        <time>2014-11-15T16:47:40Z</time>
      </trkpt>
      <trkpt lat="43.22087" lon="-0.28714">
        <ele>207.78</ele>
        <time>2014-11-15T16:47:56Z</time>
      </trkpt>
      <trkpt lat="43.22071" lon="-0.28661">
        <ele>206.82</ele>
        <time>2014-11-15T16:48:15Z</time>
      </trkpt>
      <trkpt lat="43.22044" lon="-0.28611">
        <ele>208.26</ele>
        <time>2014-11-15T16:48:35Z</time>
      </trkpt>
      <trkpt lat="43.22015" lon="-0.28564">
        <ele>208.74</ele>
        <time>2014-11-15T16:48:55Z</time>
      </trkpt>
      <trkpt lat="43.22011" lon="-0.28541">
        <ele>207.3</ele>
        <time>2014-11-15T16:49:05Z</time>
      </trkpt>
      <trkpt lat="43.22011" lon="-0.28538">
        <ele>207.3</ele>
        <time>2014-11-15T16:49:06Z</time>
      </trkpt>
      <trkpt lat="43.22009" lon="-0.28527">
        <ele>207.3</ele>
        <time>2014-11-15T16:49:11Z</time>
      </trkpt>
      <trkpt lat="43.21977" lon="-0.28491">
        <ele>208.74</ele>
        <time>2014-11-15T16:49:29Z</time>
      </trkpt>
      <trkpt lat="43.21966" lon="-0.2848">
        <ele>209.22</ele>
        <time>2014-11-15T16:49:36Z</time>
      </trkpt>
      <trkpt lat="43.21968" lon="-0.28467">
        <ele>209.7</ele>
        <time>2014-11-15T16:49:42Z</time>
      </trkpt>
      <trkpt lat="43.21971" lon="-0.28462">
        <ele>208.26</ele>
        <time>2014-11-15T16:49:44Z</time>
      </trkpt>
      <trkpt lat="43.21975" lon="-0.28452">
        <ele>209.7</ele>
        <time>2014-11-15T16:49:48Z</time>
      </trkpt>
      <trkpt lat="43.21985" lon="-0.28436">
        <ele>210.19</ele>
        <time>2014-11-15T16:49:55Z</time>
      </trkpt>
      <trkpt lat="43.21993" lon="-0.28424">
        <ele>210.19</ele>
        <time>2014-11-15T16:50:01Z</time>
      </trkpt>
      <trkpt lat="43.22025" lon="-0.28445">
        <ele>209.22</ele>
        <time>2014-11-15T16:50:19Z</time>
      </trkpt>
      <trkpt lat="43.22041" lon="-0.28416">
        <ele>209.22</ele>
        <time>2014-11-15T16:50:33Z</time>
      </trkpt>
      <trkpt lat="43.22051" lon="-0.28377">
        <ele>210.67</ele>
        <time>2014-11-15T16:50:50Z</time>
      </trkpt>
      <trkpt lat="43.22029" lon="-0.28347">
        <ele>209.7</ele>
        <time>2014-11-15T16:51:07Z</time>
      </trkpt>
      <trkpt lat="43.22033" lon="-0.28351">
        <ele>210.19</ele>
        <time>2014-11-15T16:51:20Z</time>
      </trkpt>
      <trkpt lat="43.22053" lon="-0.28381">
        <ele>209.7</ele>
        <time>2014-11-15T16:51:34Z</time>
      </trkpt>
      <trkpt lat="43.22034" lon="-0.28427">
        <ele>209.7</ele>
        <time>2014-11-15T16:51:51Z</time>
      </trkpt>
      <trkpt lat="43.22029" lon="-0.28436">
        <ele>210.19</ele>
        <time>2014-11-15T16:51:56Z</time>
      </trkpt>
      <trkpt lat="43.22023" lon="-0.28437">
        <ele>209.22</ele>
        <time>2014-11-15T16:52:00Z</time>
      </trkpt>
      <trkpt lat="43.22007" lon="-0.28421">
        <ele>209.22</ele>
        <time>2014-11-15T16:52:10Z</time>
      </trkpt>
      <trkpt lat="43.22004" lon="-0.28419">
        <ele>210.19</ele>
        <time>2014-11-15T16:52:12Z</time>
      </trkpt>
      <trkpt lat="43.22" lon="-0.28418">
        <ele>210.67</ele>
        <time>2014-11-15T16:52:14Z</time>
      </trkpt>
      <trkpt lat="43.21994" lon="-0.28422">
        <ele>208.74</ele>
        <time>2014-11-15T16:52:17Z</time>
      </trkpt>
      <trkpt lat="43.21989" lon="-0.2843">
        <ele>210.67</ele>
        <time>2014-11-15T16:52:20Z</time>
      </trkpt>
      <trkpt lat="43.21969" lon="-0.28463">
        <ele>209.7</ele>
        <time>2014-11-15T16:52:35Z</time>
      </trkpt>
      <trkpt lat="43.21965" lon="-0.28472">
        <ele>209.7</ele>
        <time>2014-11-15T16:52:39Z</time>
      </trkpt>
      <trkpt lat="43.21965" lon="-0.28478">
        <ele>208.74</ele>
        <time>2014-11-15T16:52:41Z</time>
      </trkpt>
      <trkpt lat="43.21985" lon="-0.28503">
        <ele>210.19</ele>
        <time>2014-11-15T16:52:53Z</time>
      </trkpt>
      <trkpt lat="43.2199" lon="-0.28509">
        <ele>209.22</ele>
        <time>2014-11-15T16:52:56Z</time>
      </trkpt>
      <trkpt lat="43.22009" lon="-0.28531">
        <ele>208.74</ele>
        <time>2014-11-15T16:53:08Z</time>
      </trkpt>
      <trkpt lat="43.22014" lon="-0.28565">
        <ele>210.19</ele>
        <time>2014-11-15T16:53:21Z</time>
      </trkpt>
      <trkpt lat="43.22015" lon="-0.28568">
        <ele>210.19</ele>
        <time>2014-11-15T16:53:22Z</time>
      </trkpt>
      <trkpt lat="43.22038" lon="-0.28603">
        <ele>209.22</ele>
        <time>2014-11-15T16:53:37Z</time>
      </trkpt>
      <trkpt lat="43.22045" lon="-0.28615">
        <ele>210.19</ele>
        <time>2014-11-15T16:53:42Z</time>
      </trkpt>
      <trkpt lat="43.22053" lon="-0.28629">
        <ele>208.74</ele>
        <time>2014-11-15T16:53:47Z</time>
      </trkpt>
      <trkpt lat="43.22075" lon="-0.28675">
        <ele>209.22</ele>
        <time>2014-11-15T16:54:05Z</time>
      </trkpt>
      <trkpt lat="43.2209" lon="-0.28724">
        <ele>209.22</ele>
        <time>2014-11-15T16:54:23Z</time>
      </trkpt>
      <trkpt lat="43.22089" lon="-0.28746">
        <ele>208.74</ele>
        <time>2014-11-15T16:54:32Z</time>
      </trkpt>
      <trkpt lat="43.22066" lon="-0.28779">
        <ele>207.78</ele>
        <time>2014-11-15T16:54:51Z</time>
      </trkpt>
      <trkpt lat="43.22038" lon="-0.28811">
        <ele>208.74</ele>
        <time>2014-11-15T16:55:10Z</time>
      </trkpt>
      <trkpt lat="43.22037" lon="-0.28812">
        <ele>208.74</ele>
        <time>2014-11-15T16:55:11Z</time>
      </trkpt>
      <trkpt lat="43.21989" lon="-0.28836">
        <ele>209.22</ele>
        <time>2014-11-15T16:55:32Z</time>
      </trkpt>
      <trkpt lat="43.2198" lon="-0.28841">
        <ele>208.74</ele>
        <time>2014-11-15T16:55:37Z</time>
      </trkpt>
      <trkpt lat="43.21971" lon="-0.28847">
        <ele>210.19</ele>
        <time>2014-11-15T16:55:42Z</time>
      </trkpt>
      <trkpt lat="43.21937" lon="-0.28869">
        <ele>210.19</ele>
        <time>2014-11-15T16:55:58Z</time>
      </trkpt>
      <trkpt lat="43.21903" lon="-0.28889">
        <ele>209.7</ele>
        <time>2014-11-15T16:56:18Z</time>
      </trkpt>
      <trkpt lat="43.21893" lon="-0.28893">
        <ele>211.15</ele>
        <time>2014-11-15T16:56:23Z</time>
      </trkpt>
      <trkpt lat="43.21858" lon="-0.28908">
        <ele>211.15</ele>
        <time>2014-11-15T16:56:42Z</time>
      </trkpt>
      <trkpt lat="43.21855" lon="-0.28909">
        <ele>209.7</ele>
        <time>2014-11-15T16:56:44Z</time>
      </trkpt>
      <trkpt lat="43.21847" lon="-0.28912">
        <ele>211.15</ele>
        <time>2014-11-15T16:56:48Z</time>
      </trkpt>
      <trkpt lat="43.21801" lon="-0.28931">
        <ele>214.03</ele>
        <time>2014-11-15T16:57:07Z</time>
      </trkpt>
      <trkpt lat="43.21796" lon="-0.28937">
        <ele>214.03</ele>
        <time>2014-11-15T16:57:12Z</time>
      </trkpt>
      <trkpt lat="43.21793" lon="-0.28947">
        <ele>215.47</ele>
        <time>2014-11-15T16:57:17Z</time>
      </trkpt>
      <trkpt lat="43.21797" lon="-0.28976">
        <ele>218.36</ele>
        <time>2014-11-15T16:57:29Z</time>
      </trkpt>
      <trkpt lat="43.21791" lon="-0.29026">
        <ele>219.32</ele>
        <time>2014-11-15T16:57:49Z</time>
      </trkpt>
      <trkpt lat="43.21782" lon="-0.29058">
        <ele>219.8</ele>
        <time>2014-11-15T16:58:02Z</time>
      </trkpt>
      <trkpt lat="43.21777" lon="-0.29067">
        <ele>218.36</ele>
        <time>2014-11-15T16:58:07Z</time>
      </trkpt>
      <trkpt lat="43.21759" lon="-0.29106">
        <ele>219.8</ele>
        <time>2014-11-15T16:58:24Z</time>
      </trkpt>
      <trkpt lat="43.2174" lon="-0.29163">
        <ele>218.84</ele>
        <time>2014-11-15T16:58:44Z</time>
      </trkpt>
      <trkpt lat="43.2172" lon="-0.2922">
        <ele>218.84</ele>
        <time>2014-11-15T16:59:05Z</time>
      </trkpt>
      <trkpt lat="43.21704" lon="-0.29268">
        <ele>216.91</ele>
        <time>2014-11-15T16:59:23Z</time>
      </trkpt>
      <trkpt lat="43.21702" lon="-0.29273">
        <ele>218.36</ele>
        <time>2014-11-15T16:59:25Z</time>
      </trkpt>
      <trkpt lat="43.217" lon="-0.29278">
        <ele>216.91</ele>
        <time>2014-11-15T16:59:27Z</time>
      </trkpt>
      <trkpt lat="43.21685" lon="-0.29321">
        <ele>216.43</ele>
        <time>2014-11-15T16:59:43Z</time>
      </trkpt>
      <trkpt lat="43.21662" lon="-0.29377">
        <ele>215.95</ele>
        <time>2014-11-15T17:00:03Z</time>
      </trkpt>
      <trkpt lat="43.21644" lon="-0.29422">
        <ele>217.4</ele>
        <time>2014-11-15T17:00:22Z</time>
      </trkpt>
      <trkpt lat="43.21625" lon="-0.29463">
        <ele>218.36</ele>
        <time>2014-11-15T17:00:40Z</time>
      </trkpt>
      <trkpt lat="43.21604" lon="-0.29513">
        <ele>216.91</ele>
        <time>2014-11-15T17:00:56Z</time>
      </trkpt>
      <trkpt lat="43.21596" lon="-0.2953">
        <ele>218.84</ele>
        <time>2014-11-15T17:01:02Z</time>
      </trkpt>
      <trkpt lat="43.21591" lon="-0.29541">
        <ele>217.4</ele>
        <time>2014-11-15T17:01:06Z</time>
      </trkpt>
      <trkpt lat="43.21584" lon="-0.29556">
        <ele>218.84</ele>
        <time>2014-11-15T17:01:12Z</time>
      </trkpt>
      <trkpt lat="43.21569" lon="-0.29591">
        <ele>218.84</ele>
        <time>2014-11-15T17:01:26Z</time>
      </trkpt>
      <trkpt lat="43.21555" lon="-0.29627">
        <ele>217.4</ele>
        <time>2014-11-15T17:01:41Z</time>
      </trkpt>
      <trkpt lat="43.2155" lon="-0.29637">
        <ele>218.84</ele>
        <time>2014-11-15T17:01:45Z</time>
      </trkpt>
      <trkpt lat="43.21544" lon="-0.29654">
        <ele>217.4</ele>
        <time>2014-11-15T17:01:51Z</time>
      </trkpt>
      <trkpt lat="43.21522" lon="-0.29706">
        <ele>217.88</ele>
        <time>2014-11-15T17:02:11Z</time>
      </trkpt>
      <trkpt lat="43.21516" lon="-0.29715">
        <ele>219.32</ele>
        <time>2014-11-15T17:02:15Z</time>
      </trkpt>
      <trkpt lat="43.21511" lon="-0.29728">
        <ele>217.88</ele>
        <time>2014-11-15T17:02:20Z</time>
      </trkpt>
      <trkpt lat="43.21495" lon="-0.29763">
        <ele>219.32</ele>
        <time>2014-11-15T17:02:32Z</time>
      </trkpt>
      <trkpt lat="43.21481" lon="-0.29793">
        <ele>219.32</ele>
        <time>2014-11-15T17:02:43Z</time>
      </trkpt>
      <trkpt lat="43.21462" lon="-0.29839">
        <ele>218.36</ele>
        <time>2014-11-15T17:03:02Z</time>
      </trkpt>
      <trkpt lat="43.21444" lon="-0.29889">
        <ele>219.32</ele>
        <time>2014-11-15T17:03:20Z</time>
      </trkpt>
      <trkpt lat="43.21422" lon="-0.29937">
        <ele>219.32</ele>
        <time>2014-11-15T17:03:40Z</time>
      </trkpt>
      <trkpt lat="43.214" lon="-0.29981">
        <ele>217.88</ele>
        <time>2014-11-15T17:03:59Z</time>
      </trkpt>
      <trkpt lat="43.21394" lon="-0.29991">
        <ele>217.88</ele>
        <time>2014-11-15T17:04:06Z</time>
      </trkpt>
      <trkpt lat="43.2139" lon="-0.29991">
        <ele>218.84</ele>
        <time>2014-11-15T17:04:08Z</time>
      </trkpt>
      <trkpt lat="43.21382" lon="-0.29987">
        <ele>218.36</ele>
        <time>2014-11-15T17:04:13Z</time>
      </trkpt>
      <trkpt lat="43.21342" lon="-0.29961">
        <ele>217.88</ele>
        <time>2014-11-15T17:04:32Z</time>
      </trkpt>
      <trkpt lat="43.21304" lon="-0.29933">
        <ele>218.84</ele>
        <time>2014-11-15T17:04:51Z</time>
      </trkpt>
      <trkpt lat="43.2129" lon="-0.29925">
        <ele>217.88</ele>
        <time>2014-11-15T17:04:58Z</time>
      </trkpt>
      <trkpt lat="43.21256" lon="-0.29908">
        <ele>219.32</ele>
        <time>2014-11-15T17:05:15Z</time>
      </trkpt>
      <trkpt lat="43.21243" lon="-0.29902">
        <ele>217.88</ele>
        <time>2014-11-15T17:05:22Z</time>
      </trkpt>
      <trkpt lat="43.21208" lon="-0.29872">
        <ele>218.84</ele>
        <time>2014-11-15T17:05:40Z</time>
      </trkpt>
      <trkpt lat="43.21181" lon="-0.29852">
        <ele>218.84</ele>
        <time>2014-11-15T17:05:57Z</time>
      </trkpt>
      <trkpt lat="43.21142" lon="-0.29818">
        <ele>219.8</ele>
        <time>2014-11-15T17:06:17Z</time>
      </trkpt>
      <trkpt lat="43.21111" lon="-0.29794">
        <ele>220.28</ele>
        <time>2014-11-15T17:06:34Z</time>
      </trkpt>
      <trkpt lat="43.21093" lon="-0.29784">
        <ele>219.32</ele>
        <time>2014-11-15T17:06:43Z</time>
      </trkpt>
      <trkpt lat="43.21061" lon="-0.29764">
        <ele>218.84</ele>
        <time>2014-11-15T17:06:58Z</time>
      </trkpt>
      <trkpt lat="43.21056" lon="-0.2976">
        <ele>220.76</ele>
        <time>2014-11-15T17:07:01Z</time>
      </trkpt>
      <trkpt lat="43.21012" lon="-0.29741">
        <ele>220.28</ele>
        <time>2014-11-15T17:07:21Z</time>
      </trkpt>
      <trkpt lat="43.20969" lon="-0.29733">
        <ele>220.76</ele>
        <time>2014-11-15T17:07:41Z</time>
      </trkpt>
      <trkpt lat="43.20935" lon="-0.29718">
        <ele>220.76</ele>
        <time>2014-11-15T17:07:59Z</time>
      </trkpt>
      <trkpt lat="43.20895" lon="-0.29694">
        <ele>221.72</ele>
        <time>2014-11-15T17:08:20Z</time>
      </trkpt>
      <trkpt lat="43.20857" lon="-0.29672">
        <ele>222.2</ele>
        <time>2014-11-15T17:08:37Z</time>
      </trkpt>
      <trkpt lat="43.20835" lon="-0.2966">
        <ele>221.24</ele>
        <time>2014-11-15T17:08:49Z</time>
      </trkpt>
      <trkpt lat="43.20795" lon="-0.29635">
        <ele>220.76</ele>
        <time>2014-11-15T17:09:09Z</time>
      </trkpt>
      <trkpt lat="43.20766" lon="-0.29618">
        <ele>222.68</ele>
        <time>2014-11-15T17:09:24Z</time>
      </trkpt>
      <trkpt lat="43.20734" lon="-0.29594">
        <ele>221.24</ele>
        <time>2014-11-15T17:09:41Z</time>
      </trkpt>
      <trkpt lat="43.207" lon="-0.2956">
        <ele>221.72</ele>
        <time>2014-11-15T17:10:02Z</time>
      </trkpt>
      <trkpt lat="43.2066" lon="-0.29534">
        <ele>222.2</ele>
        <time>2014-11-15T17:10:24Z</time>
      </trkpt>
      <trkpt lat="43.20632" lon="-0.29512">
        <ele>222.2</ele>
        <time>2014-11-15T17:10:46Z</time>
      </trkpt>
      <trkpt lat="43.20603" lon="-0.29499">
        <ele>222.68</ele>
        <time>2014-11-15T17:11:09Z</time>
      </trkpt>
      <trkpt lat="43.2058" lon="-0.29489">
        <ele>222.68</ele>
        <time>2014-11-15T17:11:29Z</time>
      </trkpt>
      <trkpt lat="43.20556" lon="-0.29472">
        <ele>221.72</ele>
        <time>2014-11-15T17:11:45Z</time>
      </trkpt>
      <trkpt lat="43.2053" lon="-0.29453">
        <ele>221.72</ele>
        <time>2014-11-15T17:12:02Z</time>
      </trkpt>
      <trkpt lat="43.20501" lon="-0.29424">
        <ele>222.2</ele>
        <time>2014-11-15T17:12:18Z</time>
      </trkpt>
      <trkpt lat="43.20487" lon="-0.29409">
        <ele>222.2</ele>
        <time>2014-11-15T17:12:26Z</time>
      </trkpt>
      <trkpt lat="43.20484" lon="-0.29405">
        <ele>222.2</ele>
        <time>2014-11-15T17:12:28Z</time>
      </trkpt>
      <trkpt lat="43.20474" lon="-0.29395">
        <ele>222.2</ele>
        <time>2014-11-15T17:12:34Z</time>
      </trkpt>
      <trkpt lat="43.20452" lon="-0.29369">
        <ele>222.2</ele>
        <time>2014-11-15T17:12:50Z</time>
      </trkpt>
      <trkpt lat="43.20437" lon="-0.29356">
        <ele>223.64</ele>
        <time>2014-11-15T17:12:57Z</time>
      </trkpt>
      <trkpt lat="43.20402" lon="-0.29327">
        <ele>222.68</ele>
        <time>2014-11-15T17:13:15Z</time>
      </trkpt>
      <trkpt lat="43.20389" lon="-0.29319">
        <ele>223.64</ele>
        <time>2014-11-15T17:13:22Z</time>
      </trkpt>
      <trkpt lat="43.20385" lon="-0.29316">
        <ele>222.68</ele>
        <time>2014-11-15T17:13:24Z</time>
      </trkpt>
      <trkpt lat="43.20378" lon="-0.29311">
        <ele>224.12</ele>
        <time>2014-11-15T17:13:28Z</time>
      </trkpt>
      <trkpt lat="43.20357" lon="-0.29294">
        <ele>222.68</ele>
        <time>2014-11-15T17:13:40Z</time>
      </trkpt>
      <trkpt lat="43.20325" lon="-0.29273">
        <ele>224.61</ele>
        <time>2014-11-15T17:13:56Z</time>
      </trkpt>
      <trkpt lat="43.20315" lon="-0.29265">
        <ele>223.16</ele>
        <time>2014-11-15T17:14:01Z</time>
      </trkpt>
      <trkpt lat="43.2029" lon="-0.29225">
        <ele>224.61</ele>
        <time>2014-11-15T17:14:19Z</time>
      </trkpt>
      <trkpt lat="43.20261" lon="-0.29193">
        <ele>225.57</ele>
        <time>2014-11-15T17:14:38Z</time>
      </trkpt>
      <trkpt lat="43.20244" lon="-0.29174">
        <ele>224.12</ele>
        <time>2014-11-15T17:14:50Z</time>
      </trkpt>
      <trkpt lat="43.20217" lon="-0.29135">
        <ele>226.53</ele>
        <time>2014-11-15T17:15:08Z</time>
      </trkpt>
      <trkpt lat="43.20193" lon="-0.29101">
        <ele>226.53</ele>
        <time>2014-11-15T17:15:27Z</time>
      </trkpt>
      <trkpt lat="43.20182" lon="-0.29088">
        <ele>227.01</ele>
        <time>2014-11-15T17:15:35Z</time>
      </trkpt>
      <trkpt lat="43.20168" lon="-0.29059">
        <ele>225.57</ele>
        <time>2014-11-15T17:15:46Z</time>
      </trkpt>
      <trkpt lat="43.20165" lon="-0.29054">
        <ele>227.01</ele>
        <time>2014-11-15T17:15:48Z</time>
      </trkpt>
      <trkpt lat="43.20139" lon="-0.29008">
        <ele>227.49</ele>
        <time>2014-11-15T17:16:09Z</time>
      </trkpt>
      <trkpt lat="43.20136" lon="-0.29002">
        <ele>226.05</ele>
        <time>2014-11-15T17:16:11Z</time>
      </trkpt>
      <trkpt lat="43.20114" lon="-0.28972">
        <ele>227.49</ele>
        <time>2014-11-15T17:16:28Z</time>
      </trkpt>
      <trkpt lat="43.20088" lon="-0.28926">
        <ele>227.97</ele>
        <time>2014-11-15T17:16:50Z</time>
      </trkpt>
      <trkpt lat="43.20073" lon="-0.28884">
        <ele>227.01</ele>
        <time>2014-11-15T17:17:06Z</time>
      </trkpt>
      <trkpt lat="43.20073" lon="-0.28879">
        <ele>227.01</ele>
        <time>2014-11-15T17:17:08Z</time>
      </trkpt>
      <trkpt lat="43.20072" lon="-0.28858">
        <ele>227.97</ele>
        <time>2014-11-15T17:17:15Z</time>
      </trkpt>
      <trkpt lat="43.20069" lon="-0.28814">
        <ele>227.97</ele>
        <time>2014-11-15T17:17:32Z</time>
      </trkpt>
      <trkpt lat="43.20069" lon="-0.28795">
        <ele>227.49</ele>
        <time>2014-11-15T17:17:40Z</time>
      </trkpt>
      <trkpt lat="43.20067" lon="-0.28789">
        <ele>228.93</ele>
        <time>2014-11-15T17:17:44Z</time>
      </trkpt>
      <trkpt lat="43.20068" lon="-0.28785">
        <ele>228.93</ele>
        <time>2014-11-15T17:17:46Z</time>
      </trkpt>
      <trkpt lat="43.20064" lon="-0.28731">
        <ele>228.93</ele>
        <time>2014-11-15T17:18:04Z</time>
      </trkpt>
      <trkpt lat="43.20059" lon="-0.28692">
        <ele>229.41</ele>
        <time>2014-11-15T17:18:20Z</time>
      </trkpt>
      <trkpt lat="43.20056" lon="-0.2868">
        <ele>228.93</ele>
        <time>2014-11-15T17:18:24Z</time>
      </trkpt>
      <trkpt lat="43.20053" lon="-0.2867">
        <ele>228.93</ele>
        <time>2014-11-15T17:18:27Z</time>
      </trkpt>
      <trkpt lat="43.20036" lon="-0.28625">
        <ele>228.93</ele>
        <time>2014-11-15T17:18:46Z</time>
      </trkpt>
      <trkpt lat="43.20024" lon="-0.28601">
        <ele>229.41</ele>
        <time>2014-11-15T17:18:58Z</time>
      </trkpt>
      <trkpt lat="43.20008" lon="-0.28563">
        <ele>227.97</ele>
        <time>2014-11-15T17:19:14Z</time>
      </trkpt>
      <trkpt lat="43.20007" lon="-0.28558">
        <ele>229.41</ele>
        <time>2014-11-15T17:19:16Z</time>
      </trkpt>
      <trkpt lat="43.19993" lon="-0.2852">
        <ele>228.93</ele>
        <time>2014-11-15T17:19:31Z</time>
      </trkpt>
      <trkpt lat="43.19977" lon="-0.28487">
        <ele>228.45</ele>
        <time>2014-11-15T17:19:47Z</time>
      </trkpt>
      <trkpt lat="43.19961" lon="-0.28449">
        <ele>228.45</ele>
        <time>2014-11-15T17:20:03Z</time>
      </trkpt>
      <trkpt lat="43.19959" lon="-0.28444">
        <ele>229.89</ele>
        <time>2014-11-15T17:20:06Z</time>
      </trkpt>
      <trkpt lat="43.19955" lon="-0.28435">
        <ele>228.45</ele>
        <time>2014-11-15T17:20:11Z</time>
      </trkpt>
      <trkpt lat="43.19953" lon="-0.28428">
        <ele>229.89</ele>
        <time>2014-11-15T17:20:13Z</time>
      </trkpt>
      <trkpt lat="43.19942" lon="-0.28396">
        <ele>228.45</ele>
        <time>2014-11-15T17:20:26Z</time>
      </trkpt>
      <trkpt lat="43.19939" lon="-0.28383">
        <ele>229.41</ele>
        <time>2014-11-15T17:20:30Z</time>
      </trkpt>
      <trkpt lat="43.19924" lon="-0.28332">
        <ele>228.45</ele>
        <time>2014-11-15T17:20:47Z</time>
      </trkpt>
      <trkpt lat="43.19922" lon="-0.28326">
        <ele>230.37</ele>
        <time>2014-11-15T17:20:49Z</time>
      </trkpt>
      <trkpt lat="43.19907" lon="-0.28295">
        <ele>230.37</ele>
        <time>2014-11-15T17:21:04Z</time>
      </trkpt>
      <trkpt lat="43.19896" lon="-0.28263">
        <ele>230.37</ele>
        <time>2014-11-15T17:21:17Z</time>
      </trkpt>
      <trkpt lat="43.19876" lon="-0.2823">
        <ele>230.37</ele>
        <time>2014-11-15T17:21:34Z</time>
      </trkpt>
      <trkpt lat="43.19868" lon="-0.28221">
        <ele>228.93</ele>
        <time>2014-11-15T17:21:39Z</time>
      </trkpt>
      <trkpt lat="43.19848" lon="-0.2821">
        <ele>228.93</ele>
        <time>2014-11-15T17:21:50Z</time>
      </trkpt>
      <trkpt lat="43.19845" lon="-0.28208">
        <ele>230.37</ele>
        <time>2014-11-15T17:21:52Z</time>
      </trkpt>
      <trkpt lat="43.1984" lon="-0.28199">
        <ele>230.85</ele>
        <time>2014-11-15T17:21:56Z</time>
      </trkpt>
      <trkpt lat="43.19843" lon="-0.28167">
        <ele>229.41</ele>
        <time>2014-11-15T17:22:11Z</time>
      </trkpt>
      <trkpt lat="43.19844" lon="-0.28163">
        <ele>230.85</ele>
        <time>2014-11-15T17:22:13Z</time>
      </trkpt>
      <trkpt lat="43.19845" lon="-0.2815">
        <ele>229.41</ele>
        <time>2014-11-15T17:22:18Z</time>
      </trkpt>
      <trkpt lat="43.19832" lon="-0.28116">
        <ele>229.41</ele>
        <time>2014-11-15T17:22:33Z</time>
      </trkpt>
      <trkpt lat="43.19827" lon="-0.28105">
        <ele>229.41</ele>
        <time>2014-11-15T17:22:38Z</time>
      </trkpt>
      <trkpt lat="43.19805" lon="-0.28062">
        <ele>230.37</ele>
        <time>2014-11-15T17:22:59Z</time>
      </trkpt>
      <trkpt lat="43.19788" lon="-0.28025">
        <ele>230.85</ele>
        <time>2014-11-15T17:23:18Z</time>
      </trkpt>
      <trkpt lat="43.19786" lon="-0.2802">
        <ele>229.41</ele>
        <time>2014-11-15T17:23:20Z</time>
      </trkpt>
      <trkpt lat="43.19764" lon="-0.27979">
        <ele>230.85</ele>
        <time>2014-11-15T17:23:39Z</time>
      </trkpt>
      <trkpt lat="43.19763" lon="-0.27976">
        <ele>230.85</ele>
        <time>2014-11-15T17:23:40Z</time>
      </trkpt>
      <trkpt lat="43.19753" lon="-0.27955">
        <ele>229.41</ele>
        <time>2014-11-15T17:23:50Z</time>
      </trkpt>
      <trkpt lat="43.19751" lon="-0.27951">
        <ele>230.85</ele>
        <time>2014-11-15T17:23:52Z</time>
      </trkpt>
      <trkpt lat="43.1973" lon="-0.2791">
        <ele>230.85</ele>
        <time>2014-11-15T17:24:10Z</time>
      </trkpt>
      <trkpt lat="43.19707" lon="-0.27864">
        <ele>230.37</ele>
        <time>2014-11-15T17:24:31Z</time>
      </trkpt>
      <trkpt lat="43.19688" lon="-0.27843">
        <ele>230.85</ele>
        <time>2014-11-15T17:24:47Z</time>
      </trkpt>
      <trkpt lat="43.19676" lon="-0.27809">
        <ele>230.85</ele>
        <time>2014-11-15T17:25:03Z</time>
      </trkpt>
      <trkpt lat="43.1966" lon="-0.27771">
        <ele>231.81</ele>
        <time>2014-11-15T17:25:19Z</time>
      </trkpt>
      <trkpt lat="43.19642" lon="-0.27728">
        <ele>231.81</ele>
        <time>2014-11-15T17:25:37Z</time>
      </trkpt>
      <trkpt lat="43.19637" lon="-0.27717">
        <ele>230.37</ele>
        <time>2014-11-15T17:25:42Z</time>
      </trkpt>
      <trkpt lat="43.19627" lon="-0.27663">
        <ele>230.37</ele>
        <time>2014-11-15T17:26:00Z</time>
      </trkpt>
      <trkpt lat="43.19617" lon="-0.27634">
        <ele>230.85</ele>
        <time>2014-11-15T17:26:14Z</time>
      </trkpt>
      <trkpt lat="43.19614" lon="-0.27623">
        <ele>229.41</ele>
        <time>2014-11-15T17:26:18Z</time>
      </trkpt>
      <trkpt lat="43.19606" lon="-0.27596">
        <ele>229.41</ele>
        <time>2014-11-15T17:26:31Z</time>
      </trkpt>
      <trkpt lat="43.196" lon="-0.27577">
        <ele>227.49</ele>
        <time>2014-11-15T17:26:38Z</time>
      </trkpt>
      <trkpt lat="43.19597" lon="-0.2757">
        <ele>228.45</ele>
        <time>2014-11-15T17:26:41Z</time>
      </trkpt>
      <trkpt lat="43.19595" lon="-0.27565">
        <ele>227.01</ele>
        <time>2014-11-15T17:26:43Z</time>
      </trkpt>
      <trkpt lat="43.1958" lon="-0.27515">
        <ele>226.05</ele>
        <time>2014-11-15T17:27:00Z</time>
      </trkpt>
      <trkpt lat="43.19577" lon="-0.27505">
        <ele>226.05</ele>
        <time>2014-11-15T17:27:04Z</time>
      </trkpt>
      <trkpt lat="43.19578" lon="-0.27493">
        <ele>225.09</ele>
        <time>2014-11-15T17:27:09Z</time>
      </trkpt>
      <trkpt lat="43.19567" lon="-0.2743">
        <ele>223.64</ele>
        <time>2014-11-15T17:27:28Z</time>
      </trkpt>
      <trkpt lat="43.19556" lon="-0.27409">
        <ele>223.64</ele>
        <time>2014-11-15T17:27:42Z</time>
      </trkpt>
      <trkpt lat="43.19535" lon="-0.27372">
        <ele>224.61</ele>
        <time>2014-11-15T17:28:06Z</time>
      </trkpt>
      <trkpt lat="43.19534" lon="-0.2737">
        <ele>224.61</ele>
        <time>2014-11-15T17:28:07Z</time>
      </trkpt>
      <trkpt lat="43.19509" lon="-0.27333">
        <ele>224.61</ele>
        <time>2014-11-15T17:28:24Z</time>
      </trkpt>
      <trkpt lat="43.19508" lon="-0.2733">
        <ele>224.61</ele>
        <time>2014-11-15T17:28:25Z</time>
      </trkpt>
      <trkpt lat="43.1948" lon="-0.2729">
        <ele>223.64</ele>
        <time>2014-11-15T17:28:40Z</time>
      </trkpt>
      <trkpt lat="43.19472" lon="-0.27282">
        <ele>223.64</ele>
        <time>2014-11-15T17:28:44Z</time>
      </trkpt>
      <trkpt lat="43.19448" lon="-0.27257">
        <ele>224.12</ele>
        <time>2014-11-15T17:28:58Z</time>
      </trkpt>
      <trkpt lat="43.19427" lon="-0.27215">
        <ele>224.12</ele>
        <time>2014-11-15T17:29:14Z</time>
      </trkpt>
      <trkpt lat="43.19415" lon="-0.27193">
        <ele>225.57</ele>
        <time>2014-11-15T17:29:23Z</time>
      </trkpt>
      <trkpt lat="43.19386" lon="-0.27152">
        <ele>224.61</ele>
        <time>2014-11-15T17:29:42Z</time>
      </trkpt>
      <trkpt lat="43.1938" lon="-0.27141">
        <ele>226.05</ele>
        <time>2014-11-15T17:29:47Z</time>
      </trkpt>
      <trkpt lat="43.19363" lon="-0.27113">
        <ele>224.61</ele>
        <time>2014-11-15T17:29:58Z</time>
      </trkpt>
      <trkpt lat="43.19342" lon="-0.27078">
        <ele>226.53</ele>
        <time>2014-11-15T17:30:11Z</time>
      </trkpt>
      <trkpt lat="43.19333" lon="-0.27064">
        <ele>225.57</ele>
        <time>2014-11-15T17:30:17Z</time>
      </trkpt>
      <trkpt lat="43.19306" lon="-0.27023">
        <ele>226.53</ele>
        <time>2014-11-15T17:30:36Z</time>
      </trkpt>
      <trkpt lat="43.19283" lon="-0.26982">
        <ele>225.57</ele>
        <time>2014-11-15T17:30:54Z</time>
      </trkpt>
      <trkpt lat="43.1928" lon="-0.26978">
        <ele>227.01</ele>
        <time>2014-11-15T17:30:56Z</time>
      </trkpt>
      <trkpt lat="43.1925" lon="-0.26934">
        <ele>227.49</ele>
        <time>2014-11-15T17:31:16Z</time>
      </trkpt>
      <trkpt lat="43.19227" lon="-0.2689">
        <ele>226.53</ele>
        <time>2014-11-15T17:31:35Z</time>
      </trkpt>
      <trkpt lat="43.19199" lon="-0.26842">
        <ele>227.49</ele>
        <time>2014-11-15T17:31:54Z</time>
      </trkpt>
      <trkpt lat="43.1919" lon="-0.26828">
        <ele>226.05</ele>
        <time>2014-11-15T17:32:00Z</time>
      </trkpt>
      <trkpt lat="43.19186" lon="-0.26821">
        <ele>226.53</ele>
        <time>2014-11-15T17:32:03Z</time>
      </trkpt>
      <trkpt lat="43.19187" lon="-0.26807">
        <ele>227.97</ele>
        <time>2014-11-15T17:32:08Z</time>
      </trkpt>
      <trkpt lat="43.19168" lon="-0.26771">
        <ele>227.97</ele>
        <time>2014-11-15T17:32:23Z</time>
      </trkpt>
      <trkpt lat="43.19141" lon="-0.26727">
        <ele>227.01</ele>
        <time>2014-11-15T17:32:43Z</time>
      </trkpt>
      <trkpt lat="43.19115" lon="-0.26694">
        <ele>228.45</ele>
        <time>2014-11-15T17:33:01Z</time>
      </trkpt>
      <trkpt lat="43.19088" lon="-0.26647">
        <ele>228.93</ele>
        <time>2014-11-15T17:33:23Z</time>
      </trkpt>
      <trkpt lat="43.19084" lon="-0.2664">
        <ele>227.97</ele>
        <time>2014-11-15T17:33:26Z</time>
      </trkpt>
      <trkpt lat="43.19054" lon="-0.26589">
        <ele>228.45</ele>
        <time>2014-11-15T17:33:46Z</time>
      </trkpt>
      <trkpt lat="43.19047" lon="-0.26579">
        <ele>229.89</ele>
        <time>2014-11-15T17:33:51Z</time>
      </trkpt>
      <trkpt lat="43.19041" lon="-0.26573">
        <ele>227.97</ele>
        <time>2014-11-15T17:33:55Z</time>
      </trkpt>
      <trkpt lat="43.19012" lon="-0.26528">
        <ele>228.45</ele>
        <time>2014-11-15T17:34:15Z</time>
      </trkpt>
      <trkpt lat="43.19007" lon="-0.26514">
        <ele>229.41</ele>
        <time>2014-11-15T17:34:21Z</time>
      </trkpt>
      <trkpt lat="43.18997" lon="-0.26498">
        <ele>228.93</ele>
        <time>2014-11-15T17:34:28Z</time>
      </trkpt>
      <trkpt lat="43.18975" lon="-0.26454">
        <ele>229.89</ele>
        <time>2014-11-15T17:34:48Z</time>
      </trkpt>
      <trkpt lat="43.18938" lon="-0.2642">
        <ele>228.93</ele>
        <time>2014-11-15T17:35:09Z</time>
      </trkpt>
      <trkpt lat="43.18903" lon="-0.26388">
        <ele>230.37</ele>
        <time>2014-11-15T17:35:29Z</time>
      </trkpt>
      <trkpt lat="43.18867" lon="-0.26352">
        <ele>230.85</ele>
        <time>2014-11-15T17:35:52Z</time>
      </trkpt>
      <trkpt lat="43.18864" lon="-0.26348">
        <ele>230.85</ele>
        <time>2014-11-15T17:35:54Z</time>
      </trkpt>
      <trkpt lat="43.18865" lon="-0.26334">
        <ele>230.37</ele>
        <time>2014-11-15T17:36:01Z</time>
      </trkpt>
      <trkpt lat="43.18874" lon="-0.26319">
        <ele>229.89</ele>
        <time>2014-11-15T17:36:09Z</time>
      </trkpt>
      <trkpt lat="43.189" lon="-0.26305">
        <ele>229.89</ele>
        <time>2014-11-15T17:36:23Z</time>
      </trkpt>
      <trkpt lat="43.18937" lon="-0.26286">
        <ele>229.41</ele>
        <time>2014-11-15T17:36:41Z</time>
      </trkpt>
      <trkpt lat="43.18944" lon="-0.26287">
        <ele>230.37</ele>
        <time>2014-11-15T17:36:45Z</time>
      </trkpt>
      <trkpt lat="43.1898" lon="-0.26306">
        <ele>229.41</ele>
        <time>2014-11-15T17:37:04Z</time>
      </trkpt>
      <trkpt lat="43.19002" lon="-0.26321">
        <ele>228.93</ele>
        <time>2014-11-15T17:37:19Z</time>
      </trkpt>
      <trkpt lat="43.19038" lon="-0.26341">
        <ele>228.93</ele>
        <time>2014-11-15T17:37:40Z</time>
      </trkpt>
      <trkpt lat="43.19076" lon="-0.26364">
        <ele>228.45</ele>
        <time>2014-11-15T17:37:59Z</time>
      </trkpt>
      <trkpt lat="43.19102" lon="-0.26378">
        <ele>229.41</ele>
        <time>2014-11-15T17:38:14Z</time>
      </trkpt>
      <trkpt lat="43.19112" lon="-0.26385">
        <ele>228.45</ele>
        <time>2014-11-15T17:38:19Z</time>
      </trkpt>
      <trkpt lat="43.19146" lon="-0.26412">
        <ele>227.97</ele>
        <time>2014-11-15T17:38:37Z</time>
      </trkpt>
      <trkpt lat="43.19167" lon="-0.26435">
        <ele>227.49</ele>
        <time>2014-11-15T17:38:55Z</time>
      </trkpt>
      <trkpt lat="43.19173" lon="-0.26426">
        <ele>227.01</ele>
        <time>2014-11-15T17:39:07Z</time>
      </trkpt>
      <trkpt lat="43.19184" lon="-0.26428">
        <ele>227.01</ele>
        <time>2014-11-15T17:39:24Z</time>
      </trkpt>
    </trkseg>
  </trk>
</gpx>